<?xml version="1.0" encoding="ISO-8859-1"?>
<gpx version="1.1" 
creator="Memory-Map 5.4.2.1089 http://www.memory-map.com"
 xmlns:xsi="http://www.w3.org/2001/XMLSchema-instance"
 xmlns="http://www.topografix.com/GPX/1/1"
 xsi:schemaLocation="http://www.topografix.com/GPX/1/1 http://www.topografix.com/GPX/1/1/gpx.xsd">
<trk>
<name>Snowdon Horseshoe</name>
<type>Track</type>
<trkseg>
<trkpt lat="53.0812040011" lon="-4.0178308328"><time>2013-08-08T07:48:10Z</time></trkpt>
<trkpt lat="53.0804109971" lon="-4.0213616669"><time>2013-08-08T07:48:22Z</time></trkpt>
<trkpt lat="53.0804911693" lon="-4.0211675008"><ele>372</ele><time>2013-08-08T07:51:10Z</time></trkpt>
<trkpt lat="53.0804248333" lon="-4.0213669995"><ele>373</ele><time>2013-08-08T07:52:54Z</time></trkpt>
<trkpt lat="53.0804438353" lon="-4.0216124992"><ele>373</ele><time>2013-08-08T07:53:06Z</time></trkpt>
<trkpt lat="53.0805771669" lon="-4.0216771662"><ele>373</ele><time>2013-08-08T07:53:18Z</time></trkpt>
<trkpt lat="53.0805618366" lon="-4.0219623327"><ele>373</ele><time>2013-08-08T07:53:28Z</time></trkpt>
<trkpt lat="53.0805546681" lon="-4.0222166657"><ele>373</ele><time>2013-08-08T07:53:38Z</time></trkpt>
<trkpt lat="53.0805326700" lon="-4.0224413335"><ele>374</ele><time>2013-08-08T07:53:49Z</time></trkpt>
<trkpt lat="53.0805740039" lon="-4.0226870000"><ele>373</ele><time>2013-08-08T07:53:59Z</time></trkpt>
<trkpt lat="53.0805933317" lon="-4.0229285002"><ele>373</ele><time>2013-08-08T07:54:10Z</time></trkpt>
<trkpt lat="53.0806336641" lon="-4.0231480002"><ele>374</ele><time>2013-08-08T07:54:26Z</time></trkpt>
<trkpt lat="53.0805671692" lon="-4.0233750006"><ele>374</ele><time>2013-08-08T07:54:37Z</time></trkpt>
<trkpt lat="53.0804829995" lon="-4.0235544999"><ele>374</ele><time>2013-08-08T07:54:50Z</time></trkpt>
<trkpt lat="53.0804228306" lon="-4.0237643341"><ele>374</ele><time>2013-08-08T07:55:07Z</time></trkpt>
<trkpt lat="53.0804003318" lon="-4.0239891668"><ele>375</ele><time>2013-08-08T07:55:25Z</time></trkpt>
<trkpt lat="53.0803093354" lon="-4.0241665006"><ele>375</ele><time>2013-08-08T07:55:44Z</time></trkpt>
<trkpt lat="53.0802751700" lon="-4.0244208336"><ele>376</ele><time>2013-08-08T07:55:55Z</time></trkpt>
<trkpt lat="53.0802011649" lon="-4.0246108333"><ele>377</ele><time>2013-08-08T07:56:21Z</time></trkpt>
<trkpt lat="53.0801858346" lon="-4.0248466671"><ele>378</ele><time>2013-08-08T07:56:47Z</time></trkpt>
<trkpt lat="53.0801416636" lon="-4.0250638326"><ele>379</ele><time>2013-08-08T07:56:58Z</time></trkpt>
<trkpt lat="53.0800953309" lon="-4.0252755006"><ele>379</ele><time>2013-08-08T07:57:12Z</time></trkpt>
<trkpt lat="53.0800363302" lon="-4.0254884998"><ele>380</ele><time>2013-08-08T07:57:30Z</time></trkpt>
<trkpt lat="53.0798981667" lon="-4.0255338331"><ele>381</ele><time>2013-08-08T07:57:48Z</time></trkpt>
<trkpt lat="53.0797731638" lon="-4.0256363332"><ele>382</ele><time>2013-08-08T07:58:00Z</time></trkpt>
<trkpt lat="53.0796984990" lon="-4.0258378327"><ele>383</ele><time>2013-08-08T07:58:16Z</time></trkpt>
<trkpt lat="53.0796360016" lon="-4.0260535002"><ele>383</ele><time>2013-08-08T07:58:31Z</time></trkpt>
<trkpt lat="53.0795895020" lon="-4.0262701670"><ele>384</ele><time>2013-08-08T07:58:41Z</time></trkpt>
<trkpt lat="53.0795188347" lon="-4.0264713327"><ele>385</ele><time>2013-08-08T07:58:52Z</time></trkpt>
<trkpt lat="53.0794453303" lon="-4.0266603331"><ele>386</ele><time>2013-08-08T07:59:05Z</time></trkpt>
<trkpt lat="53.0793801705" lon="-4.0268841664"><ele>387</ele><time>2013-08-08T07:59:20Z</time></trkpt>
<trkpt lat="53.0792918364" lon="-4.0270600001"><ele>387</ele><time>2013-08-08T07:59:30Z</time></trkpt>
<trkpt lat="53.0792040030" lon="-4.0272420009"><ele>388</ele><time>2013-08-08T07:59:41Z</time></trkpt>
<trkpt lat="53.0791288296" lon="-4.0274481674"><ele>389</ele><time>2013-08-08T07:59:53Z</time></trkpt>
<trkpt lat="53.0790951649" lon="-4.0276856661"><ele>390</ele><time>2013-08-08T08:00:08Z</time></trkpt>
<trkpt lat="53.0790456692" lon="-4.0278966665"><ele>391</ele><time>2013-08-08T08:00:26Z</time></trkpt>
<trkpt lat="53.0790066640" lon="-4.0281233331"><ele>392</ele><time>2013-08-08T08:00:55Z</time></trkpt>
<trkpt lat="53.0789643367" lon="-4.0283475002"><ele>393</ele><time>2013-08-08T08:01:06Z</time></trkpt>
<trkpt lat="53.0789621671" lon="-4.0285903335"><ele>394</ele><time>2013-08-08T08:01:20Z</time></trkpt>
<trkpt lat="53.0789616664" lon="-4.0288156668"><ele>395</ele><time>2013-08-08T08:01:32Z</time></trkpt>
<trkpt lat="53.0789236705" lon="-4.0290363332"><ele>396</ele><time>2013-08-08T08:01:42Z</time></trkpt>
<trkpt lat="53.0789108356" lon="-4.0292725007"><ele>398</ele><time>2013-08-08T08:01:55Z</time></trkpt>
<trkpt lat="53.0788745006" lon="-4.0294954995"><ele>401</ele><time>2013-08-08T08:02:08Z</time></trkpt>
<trkpt lat="53.0788898309" lon="-4.0297221661"><ele>403</ele><time>2013-08-08T08:02:28Z</time></trkpt>
<trkpt lat="53.0788523356" lon="-4.0299376667"><ele>405</ele><time>2013-08-08T08:02:49Z</time></trkpt>
<trkpt lat="53.0787478367" lon="-4.0301058332"><ele>406</ele><time>2013-08-08T08:03:10Z</time></trkpt>
<trkpt lat="53.0786269983" lon="-4.0302143335"><ele>407</ele><time>2013-08-08T08:03:20Z</time></trkpt>
<trkpt lat="53.0785086632" lon="-4.0303568323"><ele>408</ele><time>2013-08-08T08:03:31Z</time></trkpt>
<trkpt lat="53.0783726692" lon="-4.0304633339"><ele>409</ele><time>2013-08-08T08:03:44Z</time></trkpt>
<trkpt lat="53.0783791701" lon="-4.0307058334"><ele>410</ele><time>2013-08-08T08:03:58Z</time></trkpt>
<trkpt lat="53.0783823331" lon="-4.0309308330"><ele>411</ele><time>2013-08-08T08:04:11Z</time></trkpt>
<trkpt lat="53.0783704996" lon="-4.0311643342"><ele>412</ele><time>2013-08-08T08:04:23Z</time></trkpt>
<trkpt lat="53.0784028371" lon="-4.0313816667"><ele>413</ele><time>2013-08-08T08:04:38Z</time></trkpt>
<trkpt lat="53.0784866651" lon="-4.0315668325"><ele>414</ele><time>2013-08-08T08:04:49Z</time></trkpt>
<trkpt lat="53.0784085035" lon="-4.0317496657"><ele>417</ele><time>2013-08-08T08:05:05Z</time></trkpt>
<trkpt lat="53.0783453306" lon="-4.0319529990"><ele>419</ele><time>2013-08-08T08:05:22Z</time></trkpt>
<trkpt lat="53.0782943328" lon="-4.0321759999"><ele>420</ele><time>2013-08-08T08:05:36Z</time></trkpt>
<trkpt lat="53.0782485008" lon="-4.0323998332"><ele>432</ele><time>2013-08-08T08:06:03Z</time></trkpt>
<trkpt lat="53.0781788349" lon="-4.0326089998"><ele>434</ele><time>2013-08-08T08:06:17Z</time></trkpt>
<trkpt lat="53.0781168302" lon="-4.0328091661"><ele>434</ele><time>2013-08-08T08:06:30Z</time></trkpt>
<trkpt lat="53.0781136672" lon="-4.0330361664"><ele>435</ele><time>2013-08-08T08:06:44Z</time></trkpt>
<trkpt lat="53.0781574965" lon="-4.0332523326"><ele>439</ele><time>2013-08-08T08:07:10Z</time></trkpt>
<trkpt lat="53.0781468312" lon="-4.0334794998"><ele>443</ele><time>2013-08-08T08:07:26Z</time></trkpt>
<trkpt lat="53.0780980031" lon="-4.0336906672"><ele>444</ele><time>2013-08-08T08:07:41Z</time></trkpt>
<trkpt lat="53.0780873299" lon="-4.0339163343"><ele>446</ele><time>2013-08-08T08:07:56Z</time></trkpt>
<trkpt lat="53.0780270020" lon="-4.0341326674"><ele>446</ele><time>2013-08-08T08:08:06Z</time></trkpt>
<trkpt lat="53.0780513366" lon="-4.0343528350"><ele>448</ele><time>2013-08-08T08:08:34Z</time></trkpt>
<trkpt lat="53.0780616681" lon="-4.0345824997"><ele>452</ele><time>2013-08-08T08:08:56Z</time></trkpt>
<trkpt lat="53.0780331691" lon="-4.0348039985"><ele>452</ele><time>2013-08-08T08:09:06Z</time></trkpt>
<trkpt lat="53.0781469981" lon="-4.0349424998"><ele>461</ele><time>2013-08-08T08:09:30Z</time></trkpt>
<trkpt lat="53.0781910022" lon="-4.0351653337"><ele>463</ele><time>2013-08-08T08:09:44Z</time></trkpt>
<trkpt lat="53.0782233318" lon="-4.0353886684"><ele>463</ele><time>2013-08-08T08:10:01Z</time></trkpt>
<trkpt lat="53.0782008330" lon="-4.0356100003"><ele>464</ele><time>2013-08-08T08:10:21Z</time></trkpt>
<trkpt lat="53.0782538335" lon="-4.0358163317"><ele>466</ele><time>2013-08-08T08:10:38Z</time></trkpt>
<trkpt lat="53.0782623370" lon="-4.0360479991"><ele>467</ele><time>2013-08-08T08:11:02Z</time></trkpt>
<trkpt lat="53.0782566706" lon="-4.0362723351"><ele>467</ele><time>2013-08-08T08:11:18Z</time></trkpt>
<trkpt lat="53.0783001661" lon="-4.0364851673"><ele>469</ele><time>2013-08-08T08:11:31Z</time></trkpt>
<trkpt lat="53.0783574979" lon="-4.0367063324"><ele>469</ele><time>2013-08-08T08:11:44Z</time></trkpt>
<trkpt lat="53.0784361680" lon="-4.0369051655"><ele>470</ele><time>2013-08-08T08:11:56Z</time></trkpt>
<trkpt lat="53.0784293334" lon="-4.0371470014"><ele>479</ele><time>2013-08-08T08:12:45Z</time></trkpt>
<trkpt lat="53.0784596682" lon="-4.0373708328"><ele>481</ele><time>2013-08-08T08:13:06Z</time></trkpt>
<trkpt lat="53.0784295003" lon="-4.0375924985"><ele>482</ele><time>2013-08-08T08:13:28Z</time></trkpt>
<trkpt lat="53.0780371666" lon="-4.0384168347"><time>2013-08-08T08:14:02Z</time></trkpt>
<trkpt lat="53.0781905015" lon="-4.0383041660"><ele>496</ele><time>2013-08-08T08:15:09Z</time></trkpt>
<trkpt lat="53.0783584992" lon="-4.0381046653"><ele>498</ele><time>2013-08-08T08:15:19Z</time></trkpt>
<trkpt lat="53.0783448299" lon="-4.0383336663"><ele>502</ele><time>2013-08-08T08:15:40Z</time></trkpt>
<trkpt lat="53.0783370018" lon="-4.0385584990"><ele>505</ele><time>2013-08-08T08:15:54Z</time></trkpt>
<trkpt lat="53.0783610026" lon="-4.0387795011"><ele>508</ele><time>2013-08-08T08:16:08Z</time></trkpt>
<trkpt lat="53.0783380032" lon="-4.0390161673"><ele>510</ele><time>2013-08-08T08:16:28Z</time></trkpt>
<trkpt lat="53.0783583323" lon="-4.0392530004"><ele>511</ele><time>2013-08-08T08:16:55Z</time></trkpt>
<trkpt lat="53.0783376694" lon="-4.0394766649"><ele>511</ele><time>2013-08-08T08:17:15Z</time></trkpt>
<trkpt lat="53.0783331633" lon="-4.0397088329"><ele>512</ele><time>2013-08-08T08:17:47Z</time></trkpt>
<trkpt lat="53.0783488353" lon="-4.0399475018"><ele>512</ele><time>2013-08-08T08:17:59Z</time></trkpt>
<trkpt lat="53.0782888333" lon="-4.0401633342"><ele>515</ele><time>2013-08-08T08:18:23Z</time></trkpt>
<trkpt lat="53.0782388369" lon="-4.0403808316"><ele>516</ele><time>2013-08-08T08:18:39Z</time></trkpt>
<trkpt lat="53.0781323353" lon="-4.0405184984"><ele>517</ele><time>2013-08-08T08:18:59Z</time></trkpt>
<trkpt lat="53.0779930035" lon="-4.0405218323"><ele>519</ele><time>2013-08-08T08:19:20Z</time></trkpt>
<trkpt lat="53.0778563341" lon="-4.0404953321"><ele>522</ele><time>2013-08-08T08:19:42Z</time></trkpt>
<trkpt lat="53.0777238369" lon="-4.0405623317"><ele>526</ele><time>2013-08-08T08:20:14Z</time></trkpt>
<trkpt lat="53.0775961637" lon="-4.0406793316"><ele>529</ele><time>2013-08-08T08:20:28Z</time></trkpt>
<trkpt lat="53.0775185029" lon="-4.0408699989"><ele>532</ele><time>2013-08-08T08:20:43Z</time></trkpt>
<trkpt lat="53.0774073362" lon="-4.0410191655"><ele>536</ele><time>2013-08-08T08:21:05Z</time></trkpt>
<trkpt lat="53.0773011684" lon="-4.0411845009"><ele>541</ele><time>2013-08-08T08:21:15Z</time></trkpt>
<trkpt lat="53.0772190015" lon="-4.0413678328"><ele>544</ele><time>2013-08-08T08:21:28Z</time></trkpt>
<trkpt lat="53.0771099965" lon="-4.0415126681"><ele>547</ele><time>2013-08-08T08:21:47Z</time></trkpt>
<trkpt lat="53.0769680023" lon="-4.0414853334"><ele>550</ele><time>2013-08-08T08:22:06Z</time></trkpt>
<trkpt lat="53.0769603332" lon="-4.0417141676"><ele>561</ele><time>2013-08-08T08:22:38Z</time></trkpt>
<trkpt lat="53.0769845009" lon="-4.0419460018"><ele>565</ele><time>2013-08-08T08:23:00Z</time></trkpt>
<trkpt lat="53.0770508369" lon="-4.0421423316"><ele>570</ele><time>2013-08-08T08:23:20Z</time></trkpt>
<trkpt lat="53.0771036704" lon="-4.0423525016"><ele>573</ele><time>2013-08-08T08:23:49Z</time></trkpt>
<trkpt lat="53.0771643321" lon="-4.0425668319"><ele>579</ele><time>2013-08-08T08:24:20Z</time></trkpt>
<trkpt lat="53.0771706661" lon="-4.0427919984"><ele>582</ele><time>2013-08-08T08:24:38Z</time></trkpt>
<trkpt lat="53.0771906694" lon="-4.0430181662"><ele>584</ele><time>2013-08-08T08:24:54Z</time></trkpt>
<trkpt lat="53.0772415002" lon="-4.0432295005"><ele>586</ele><time>2013-08-08T08:25:12Z</time></trkpt>
<trkpt lat="53.0771759987" lon="-4.0434323351"><ele>588</ele><time>2013-08-08T08:25:28Z</time></trkpt>
<trkpt lat="53.0771411657" lon="-4.0436625004"><ele>590</ele><time>2013-08-08T08:25:46Z</time></trkpt>
<trkpt lat="53.0771163305" lon="-4.0438871662"><ele>592</ele><time>2013-08-08T08:26:12Z</time></trkpt>
<trkpt lat="53.0770321687" lon="-4.0440725009"><ele>593</ele><time>2013-08-08T08:26:33Z</time></trkpt>
<trkpt lat="53.0769544999" lon="-4.0442758322"><ele>593</ele><time>2013-08-08T08:26:48Z</time></trkpt>
<trkpt lat="53.0768460035" lon="-4.0444221656"><time>2013-08-08T08:27:04Z</time></trkpt>
<trkpt lat="53.0767808358" lon="-4.0446193337"><ele>593</ele><time>2013-08-08T08:27:42Z</time></trkpt>
<trkpt lat="53.0766784986" lon="-4.0447704991"><ele>593</ele><time>2013-08-08T08:28:02Z</time></trkpt>
<trkpt lat="53.0766520023" lon="-4.0449958324"><ele>593</ele><time>2013-08-08T08:28:33Z</time></trkpt>
<trkpt lat="53.0766006629" lon="-4.0452116648"><ele>594</ele><time>2013-08-08T08:29:11Z</time></trkpt>
<trkpt lat="53.0766479969" lon="-4.0454275012"><ele>594</ele><time>2013-08-08T08:29:30Z</time></trkpt>
<trkpt lat="53.0766001701" lon="-4.0456378341"><ele>595</ele><time>2013-08-08T08:29:53Z</time></trkpt>
<trkpt lat="53.0765831629" lon="-4.0458673318"><ele>597</ele><time>2013-08-08T08:30:15Z</time></trkpt>
<trkpt lat="53.0765138308" lon="-4.0460648338"><ele>599</ele><time>2013-08-08T08:30:32Z</time></trkpt>
<trkpt lat="53.0766149998" lon="-4.0462393324"><ele>602</ele><time>2013-08-08T08:31:05Z</time></trkpt>
<trkpt lat="53.0765741666" lon="-4.0464543343"><ele>607</ele><time>2013-08-08T08:31:35Z</time></trkpt>
<trkpt lat="53.0765458345" lon="-4.0466846665"><ele>613</ele><time>2013-08-08T08:32:11Z</time></trkpt>
<trkpt lat="53.0765186628" lon="-4.0469218334"><ele>617</ele><time>2013-08-08T08:32:32Z</time></trkpt>
<trkpt lat="53.0764561653" lon="-4.0471505006"><ele>624</ele><time>2013-08-08T08:33:03Z</time></trkpt>
<trkpt lat="53.0764113347" lon="-4.0473673344"><ele>629</ele><time>2013-08-08T08:33:25Z</time></trkpt>
<trkpt lat="53.0763520002" lon="-4.0475878318"><ele>633</ele><time>2013-08-08T08:33:45Z</time></trkpt>
<trkpt lat="53.0763770024" lon="-4.0478120009"><ele>640</ele><time>2013-08-08T08:34:12Z</time></trkpt>
<trkpt lat="53.0764323314" lon="-4.0480173349"><ele>653</ele><time>2013-08-08T08:35:13Z</time></trkpt>
<trkpt lat="53.0765738328" lon="-4.0480546673"><ele>655</ele><time>2013-08-08T08:35:42Z</time></trkpt>
<trkpt lat="53.0767076651" lon="-4.0481131673"><ele>655</ele><time>2013-08-08T08:36:20Z</time></trkpt>
<trkpt lat="53.0765659968" lon="-4.0480630000"><ele>655</ele><time>2013-08-08T08:36:42Z</time></trkpt>
<trkpt lat="53.0765115023" lon="-4.0482686679"><ele>661</ele><time>2013-08-08T08:37:26Z</time></trkpt>
<trkpt lat="53.0765188297" lon="-4.0485020002"><ele>695</ele><time>2013-08-08T08:38:16Z</time></trkpt>
<trkpt lat="53.0766439994" lon="-4.0486004988"><ele>698</ele><time>2013-08-08T08:38:42Z</time></trkpt>
<trkpt lat="53.0767238299" lon="-4.0487843315"><ele>700</ele><time>2013-08-08T08:38:59Z</time></trkpt>
<trkpt lat="53.0767148336" lon="-4.0490184983"><ele>708</ele><time>2013-08-08T08:39:27Z</time></trkpt>
<trkpt lat="53.0766043345" lon="-4.0491483331"><ele>721</ele><time>2013-08-08T08:40:33Z</time></trkpt>
<trkpt lat="53.0766614993" lon="-4.0493625005"><ele>725</ele><time>2013-08-08T08:41:09Z</time></trkpt>
<trkpt lat="53.0767533302" lon="-4.0495493333"><ele>729</ele><time>2013-08-08T08:41:45Z</time></trkpt>
<trkpt lat="53.0767544985" lon="-4.0497773329"><ele>737</ele><time>2013-08-08T08:42:38Z</time></trkpt>
<trkpt lat="53.0767429988" lon="-4.0500071685"><ele>751</ele><time>2013-08-08T08:43:26Z</time></trkpt>
<trkpt lat="53.0766915003" lon="-4.0502148350"><ele>751</ele><time>2013-08-08T08:44:14Z</time></trkpt>
<trkpt lat="53.0766290029" lon="-4.0504143318"><ele>751</ele><time>2013-08-08T08:44:51Z</time></trkpt>
<trkpt lat="53.0767119964" lon="-4.0505923351"><ele>752</ele><time>2013-08-08T08:47:23Z</time></trkpt>
<trkpt lat="53.0767703295" lon="-4.0507970015"><ele>753</ele><time>2013-08-08T08:47:49Z</time></trkpt>
<trkpt lat="53.0767251650" lon="-4.0510098338"><ele>755</ele><time>2013-08-08T08:48:48Z</time></trkpt>
<trkpt lat="53.0767793338" lon="-4.0512175004"><ele>757</ele><time>2013-08-08T08:49:36Z</time></trkpt>
<trkpt lat="53.0767210007" lon="-4.0510138353"><ele>761</ele><time>2013-08-08T08:50:22Z</time></trkpt>
<trkpt lat="53.0766499996" lon="-4.0507941683"><ele>764</ele><time>2013-08-08T08:50:44Z</time></trkpt>
<trkpt lat="53.0766271671" lon="-4.0510168314"><ele>772</ele><time>2013-08-08T08:51:33Z</time></trkpt>
<trkpt lat="53.0765471697" lon="-4.0512068351"><ele>795</ele><time>2013-08-08T08:53:11Z</time></trkpt>
<trkpt lat="53.0765350024" lon="-4.0514320016"><ele>834</ele><time>2013-08-08T08:54:48Z</time></trkpt>
<trkpt lat="53.0766331673" lon="-4.0515876651"><ele>839</ele><time>2013-08-08T08:55:11Z</time></trkpt>
<trkpt lat="53.0765661637" lon="-4.0517931660"><ele>861</ele><time>2013-08-08T09:00:22Z</time></trkpt>
<trkpt lat="53.0766259988" lon="-4.0519944986"><ele>870</ele><time>2013-08-08T09:01:11Z</time></trkpt>
<trkpt lat="53.0766649961" lon="-4.0522128344"><ele>878</ele><time>2013-08-08T09:01:51Z</time></trkpt>
<trkpt lat="53.0767350038" lon="-4.0524071654"><ele>889</ele><time>2013-08-08T09:02:47Z</time></trkpt>
<trkpt lat="53.0767850002" lon="-4.0526203314"><ele>894</ele><time>2013-08-08T09:03:37Z</time></trkpt>
<trkpt lat="53.0768409967" lon="-4.0528248350"><ele>900</ele><time>2013-08-08T09:04:30Z</time></trkpt>
<trkpt lat="53.0768271685" lon="-4.0530490001"><ele>906</ele><time>2013-08-08T09:05:14Z</time></trkpt>
<trkpt lat="53.0768726667" lon="-4.0532601674"><ele>911</ele><time>2013-08-08T09:05:47Z</time></trkpt>
<trkpt lat="53.0767916679" lon="-4.0534421682"><ele>922</ele><time>2013-08-08T09:06:39Z</time></trkpt>
<trkpt lat="53.0767009974" lon="-4.0536176682"><ele>929</ele><time>2013-08-08T09:08:29Z</time></trkpt>
<trkpt lat="53.0766405026" lon="-4.0538191676"><ele>926</ele><time>2013-08-08T09:09:16Z</time></trkpt>
<trkpt lat="53.0765595039" lon="-4.0540108323"><ele>925</ele><time>2013-08-08T09:10:02Z</time></trkpt>
<trkpt lat="53.0764890035" lon="-4.0542136669"><ele>925</ele><time>2013-08-08T09:10:29Z</time></trkpt>
<trkpt lat="53.0764026642" lon="-4.0543920000"><ele>925</ele><time>2013-08-08T09:10:56Z</time></trkpt>
<trkpt lat="53.0763195038" lon="-4.0545689980"><ele>927</ele><time>2013-08-08T09:11:55Z</time></trkpt>
<trkpt lat="53.0762478352" lon="-4.0547601660"><ele>929</ele><time>2013-08-08T09:12:31Z</time></trkpt>
<trkpt lat="53.0761905034" lon="-4.0549641649"><ele>930</ele><time>2013-08-08T09:13:01Z</time></trkpt>
<trkpt lat="53.0761228323" lon="-4.0551666657"><ele>930</ele><time>2013-08-08T09:13:48Z</time></trkpt>
<trkpt lat="53.0760333300" lon="-4.0553458333"><ele>930</ele><time>2013-08-08T09:14:25Z</time></trkpt>
<trkpt lat="53.0759686629" lon="-4.0555441658"><ele>929</ele><time>2013-08-08T09:15:12Z</time></trkpt>
<trkpt lat="53.0759183327" lon="-4.0557541649"><ele>922</ele><time>2013-08-08T09:16:16Z</time></trkpt>
<trkpt lat="53.0758201679" lon="-4.0559081674"><ele>922</ele><time>2013-08-08T09:17:33Z</time></trkpt>
<trkpt lat="53.0757933299" lon="-4.0561303337"><ele>920</ele><time>2013-08-08T09:18:17Z</time></trkpt>
<trkpt lat="53.0757474979" lon="-4.0563461661"><ele>919</ele><time>2013-08-08T09:19:10Z</time></trkpt>
<trkpt lat="53.0756868362" lon="-4.0565474987"><ele>916</ele><time>2013-08-08T09:19:46Z</time></trkpt>
<trkpt lat="53.0756786664" lon="-4.0567723314"><ele>912</ele><time>2013-08-08T09:20:36Z</time></trkpt>
<trkpt lat="53.0756970008" lon="-4.0569961667"><ele>911</ele><time>2013-08-08T09:21:03Z</time></trkpt>
<trkpt lat="53.0756068309" lon="-4.0571826657"><ele>911</ele><time>2013-08-08T09:21:43Z</time></trkpt>
<trkpt lat="53.0756893317" lon="-4.0573658347"><ele>906</ele><time>2013-08-08T09:25:00Z</time></trkpt>
<trkpt lat="53.0756186644" lon="-4.0575598319"><ele>905</ele><time>2013-08-08T09:26:03Z</time></trkpt>
<trkpt lat="53.0755591631" lon="-4.0577608347"><ele>904</ele><time>2013-08-08T09:27:56Z</time></trkpt>
<trkpt lat="53.0754651705" lon="-4.0579388340"><ele>895</ele><time>2013-08-08T09:32:11Z</time></trkpt>
<trkpt lat="53.0753833294" lon="-4.0581208348"><ele>888</ele><time>2013-08-08T09:33:19Z</time></trkpt>
<trkpt lat="53.0753871679" lon="-4.0583449999"><ele>880</ele><time>2013-08-08T09:34:10Z</time></trkpt>
<trkpt lat="53.0754778306" lon="-4.0585139990"><ele>876</ele><time>2013-08-08T09:34:28Z</time></trkpt>
<trkpt lat="53.0754084984" lon="-4.0587278326"><ele>872</ele><time>2013-08-08T09:34:48Z</time></trkpt>
<trkpt lat="53.0754316648" lon="-4.0589570006"><ele>870</ele><time>2013-08-08T09:35:06Z</time></trkpt>
<trkpt lat="53.0754573345" lon="-4.0591774980"><ele>869</ele><time>2013-08-08T09:35:24Z</time></trkpt>
<trkpt lat="53.0754920006" lon="-4.0593953331"><ele>869</ele><time>2013-08-08T09:35:40Z</time></trkpt>
<trkpt lat="53.0754913330" lon="-4.0596308351"><ele>871</ele><time>2013-08-08T09:36:02Z</time></trkpt>
<trkpt lat="53.0755148331" lon="-4.0598594983"><ele>872</ele><time>2013-08-08T09:36:16Z</time></trkpt>
<trkpt lat="53.0755263329" lon="-4.0600925008"><ele>874</ele><time>2013-08-08T09:36:31Z</time></trkpt>
<trkpt lat="53.0755196651" lon="-4.0603251656"><ele>876</ele><time>2013-08-08T09:36:53Z</time></trkpt>
<trkpt lat="53.0755338351" lon="-4.0605671684"><ele>877</ele><time>2013-08-08T09:37:07Z</time></trkpt>
<trkpt lat="53.0755193313" lon="-4.0607985020"><ele>878</ele><time>2013-08-08T09:37:24Z</time></trkpt>
<trkpt lat="53.0754666646" lon="-4.0610136668"><ele>880</ele><time>2013-08-08T09:37:41Z</time></trkpt>
<trkpt lat="53.0755439997" lon="-4.0611988346"><ele>882</ele><time>2013-08-08T09:38:07Z</time></trkpt>
<trkpt lat="53.0755314986" lon="-4.0614360015"><ele>886</ele><time>2013-08-08T09:38:30Z</time></trkpt>
<trkpt lat="53.0755533298" lon="-4.0616741657"><ele>888</ele><time>2013-08-08T09:38:48Z</time></trkpt>
<trkpt lat="53.0755834977" lon="-4.0618964990"><ele>891</ele><time>2013-08-08T09:39:26Z</time></trkpt>
<trkpt lat="53.0756213347" lon="-4.0621231675"><ele>893</ele><time>2013-08-08T09:39:48Z</time></trkpt>
<trkpt lat="53.0756628354" lon="-4.0623531659"><ele>895</ele><time>2013-08-08T09:40:04Z</time></trkpt>
<trkpt lat="53.0756493330" lon="-4.0625943343"><ele>896</ele><time>2013-08-08T09:40:18Z</time></trkpt>
<trkpt lat="53.0756606658" lon="-4.0628276666"><ele>899</ele><time>2013-08-08T09:40:41Z</time></trkpt>
<trkpt lat="53.0756893317" lon="-4.0630536675"><ele>899</ele><time>2013-08-08T09:40:52Z</time></trkpt>
<trkpt lat="53.0757008314" lon="-4.0632916649"><ele>900</ele><time>2013-08-08T09:41:03Z</time></trkpt>
<trkpt lat="53.0757386684" lon="-4.0635223349"><ele>901</ele><time>2013-08-08T09:41:14Z</time></trkpt>
<trkpt lat="53.0757699966" lon="-4.0637443344"><ele>902</ele><time>2013-08-08T09:41:26Z</time></trkpt>
<trkpt lat="53.0758083344" lon="-4.0639619986"><ele>903</ele><time>2013-08-08T09:41:41Z</time></trkpt>
<trkpt lat="53.0758658330" lon="-4.0641786655"><ele>904</ele><time>2013-08-08T09:41:57Z</time></trkpt>
<trkpt lat="53.0758605003" lon="-4.0644044995"><ele>919</ele><time>2013-08-08T09:43:13Z</time></trkpt>
<trkpt lat="53.0759279966" lon="-4.0646036665"><ele>921</ele><time>2013-08-08T09:43:31Z</time></trkpt>
<trkpt lat="53.0759454966" lon="-4.0648350000"><ele>922</ele><time>2013-08-08T09:43:44Z</time></trkpt>
<trkpt lat="53.0759511630" lon="-4.0650696675"><ele>924</ele><time>2013-08-08T09:44:03Z</time></trkpt>
<trkpt lat="53.0760146697" lon="-4.0652763327"><ele>925</ele><time>2013-08-08T09:44:17Z</time></trkpt>
<trkpt lat="53.0761308352" lon="-4.0654565016"><ele>926</ele><time>2013-08-08T09:44:34Z</time></trkpt>
<trkpt lat="53.0761491696" lon="-4.0656806668"><ele>946</ele><time>2013-08-08T09:47:02Z</time></trkpt>
<trkpt lat="53.0761106650" lon="-4.0658951680"><ele>950</ele><time>2013-08-08T09:47:23Z</time></trkpt>
<trkpt lat="53.0761145035" lon="-4.0661214987"><ele>954</ele><time>2013-08-08T09:47:51Z</time></trkpt>
<trkpt lat="53.0760845025" lon="-4.0663421671"><ele>958</ele><time>2013-08-08T09:48:28Z</time></trkpt>
<trkpt lat="53.0760903358" lon="-4.0665743351"><ele>962</ele><time>2013-08-08T09:48:51Z</time></trkpt>
<trkpt lat="53.0760986646" lon="-4.0668056647"><ele>968</ele><time>2013-08-08T09:49:47Z</time></trkpt>
<trkpt lat="53.0760953347" lon="-4.0670295000"><ele>972</ele><time>2013-08-08T09:50:20Z</time></trkpt>
<trkpt lat="53.0761070013" lon="-4.0672551632"><ele>977</ele><time>2013-08-08T09:50:57Z</time></trkpt>
<trkpt lat="53.0760711670" lon="-4.0674710035"><ele>984</ele><time>2013-08-08T09:51:57Z</time></trkpt>
<trkpt lat="53.0760918299" lon="-4.0676925023"><ele>989</ele><time>2013-08-08T09:52:49Z</time></trkpt>
<trkpt lat="53.0761198362" lon="-4.0679116646"><ele>993</ele><time>2013-08-08T09:53:33Z</time></trkpt>
<trkpt lat="53.0761908372" lon="-4.0681049983"><ele>994</ele><time>2013-08-08T09:53:56Z</time></trkpt>
<trkpt lat="53.0762121677" lon="-4.0683315039"><ele>996</ele><time>2013-08-08T09:54:18Z</time></trkpt>
<trkpt lat="53.0762731632" lon="-4.0685336669"><ele>998</ele><time>2013-08-08T09:54:43Z</time></trkpt>
<trkpt lat="53.0762308359" lon="-4.0687594970"><ele>999</ele><time>2013-08-08T09:55:32Z</time></trkpt>
<trkpt lat="53.0762156645" lon="-4.0689846675"><ele>1000</ele><time>2013-08-08T09:55:44Z</time></trkpt>
<trkpt lat="53.0762375037" lon="-4.0692150036"><ele>1001</ele><time>2013-08-08T09:55:56Z</time></trkpt>
<trkpt lat="53.0761590004" lon="-4.0693969965"><ele>1003</ele><time>2013-08-08T09:56:18Z</time></trkpt>
<trkpt lat="53.0760613362" lon="-4.0695683320"><ele>1004</ele><time>2013-08-08T09:56:32Z</time></trkpt>
<trkpt lat="53.0760426680" lon="-4.0697963317"><ele>1007</ele><time>2013-08-08T09:57:04Z</time></trkpt>
<trkpt lat="53.0760128339" lon="-4.0700261672"><ele>1008</ele><time>2013-08-08T09:57:22Z</time></trkpt>
<trkpt lat="53.0759643316" lon="-4.0702485005"><ele>1010</ele><time>2013-08-08T09:57:37Z</time></trkpt>
<trkpt lat="53.0759128332" lon="-4.0704665025"><ele>1011</ele><time>2013-08-08T09:57:51Z</time></trkpt>
<trkpt lat="53.0759481668" lon="-4.0706928333"><ele>1011</ele><time>2013-08-08T09:58:12Z</time></trkpt>
<trkpt lat="53.0759208361" lon="-4.0709215005"><ele>1015</ele><time>2013-08-08T09:58:41Z</time></trkpt>
<trkpt lat="53.0759596666" lon="-4.0711376667"><ele>1017</ele><time>2013-08-08T09:59:09Z</time></trkpt>
<trkpt lat="53.0759164969" lon="-4.0713506699"><ele>1022</ele><time>2013-08-08T09:59:40Z</time></trkpt>
<trkpt lat="53.0758231640" lon="-4.0715136687"><ele>1033</ele><time>2013-08-08T10:00:26Z</time></trkpt>
<trkpt lat="53.0758101702" lon="-4.0717423360"><ele>1034</ele><time>2013-08-08T10:00:49Z</time></trkpt>
<trkpt lat="53.0757906675" lon="-4.0719693343"><ele>1034</ele><time>2013-08-08T10:01:11Z</time></trkpt>
<trkpt lat="53.0756635030" lon="-4.0720691681"><ele>1034</ele><time>2013-08-08T10:01:33Z</time></trkpt>
<trkpt lat="53.0757663329" lon="-4.0722166697"><ele>1034</ele><time>2013-08-08T10:01:52Z</time></trkpt>
<trkpt lat="53.0757618348" lon="-4.0724471649"><ele>1039</ele><time>2013-08-08T10:02:43Z</time></trkpt>
<trkpt lat="53.0757868369" lon="-4.0726785024"><ele>1039</ele><time>2013-08-08T10:03:01Z</time></trkpt>
<trkpt lat="53.0758023341" lon="-4.0729051669"><ele>1044</ele><time>2013-08-08T10:03:54Z</time></trkpt>
<trkpt lat="53.0758233309" lon="-4.0731323322"><ele>1048</ele><time>2013-08-08T10:04:18Z</time></trkpt>
<trkpt lat="53.0758046627" lon="-4.0733580033"><ele>1050</ele><time>2013-08-08T10:04:41Z</time></trkpt>
<trkpt lat="53.0758366664" lon="-4.0735829989"><ele>1052</ele><time>2013-08-08T10:05:01Z</time></trkpt>
<trkpt lat="53.0758288304" lon="-4.0738096635"><ele>1055</ele><time>2013-08-08T10:05:27Z</time></trkpt>
<trkpt lat="53.0758234978" lon="-4.0740383307"><ele>1058</ele><time>2013-08-08T10:05:43Z</time></trkpt>
<trkpt lat="53.0758026679" lon="-4.0742724975"><ele>1059</ele><time>2013-08-08T10:05:59Z</time></trkpt>
<trkpt lat="53.0757643302" lon="-4.0744913340"><ele>1060</ele><time>2013-08-08T10:06:13Z</time></trkpt>
<trkpt lat="53.0757019997" lon="-4.0746918360"><ele>1062</ele><time>2013-08-08T10:06:28Z</time></trkpt>
<trkpt lat="53.0756231705" lon="-4.0748845021"><ele>1063</ele><time>2013-08-08T10:06:41Z</time></trkpt>
<trkpt lat="53.0755653302" lon="-4.0750895023"><ele>1065</ele><time>2013-08-08T10:06:58Z</time></trkpt>
<trkpt lat="53.0755055030" lon="-4.0752981663"><ele>1070</ele><time>2013-08-08T10:08:26Z</time></trkpt>
<trkpt lat="53.0753890038" lon="-4.0754668315"><ele>1070</ele><time>2013-08-08T10:08:36Z</time></trkpt>
<trkpt lat="53.0753321648" lon="-4.0757163366"><ele>1070</ele><time>2013-08-08T10:08:46Z</time></trkpt>
<trkpt lat="53.0752723296" lon="-4.0759181658"><ele>1070</ele><time>2013-08-08T10:08:59Z</time></trkpt>
<trkpt lat="53.0751825015" lon="-4.0760861635"><ele>1070</ele><time>2013-08-08T10:09:20Z</time></trkpt>
<trkpt lat="53.0751258294" lon="-4.0762991667"><ele>1069</ele><time>2013-08-08T10:09:32Z</time></trkpt>
<trkpt lat="53.0750564973" lon="-4.0765373309"><ele>1069</ele><time>2013-08-08T10:09:45Z</time></trkpt>
<trkpt lat="53.0749854962" lon="-4.0767400026"><ele>1067</ele><time>2013-08-08T10:10:03Z</time></trkpt>
<trkpt lat="53.0749349991" lon="-4.0769519965"><ele>1062</ele><time>2013-08-08T10:10:25Z</time></trkpt>
<trkpt lat="53.0748213371" lon="-4.0771039963"><ele>1059</ele><time>2013-08-08T10:10:46Z</time></trkpt>
<trkpt lat="53.0747176647" lon="-4.0772629976"><ele>1057</ele><time>2013-08-08T10:11:06Z</time></trkpt>
<trkpt lat="53.0746411641" lon="-4.0774648348"><ele>1053</ele><time>2013-08-08T10:11:26Z</time></trkpt>
<trkpt lat="53.0745318333" lon="-4.0776073297"><ele>1048</ele><time>2013-08-08T10:11:48Z</time></trkpt>
<trkpt lat="53.0744544983" lon="-4.0777943373"><ele>1045</ele><time>2013-08-08T10:12:07Z</time></trkpt>
<trkpt lat="53.0743458350" lon="-4.0779551665"><ele>1042</ele><time>2013-08-08T10:12:18Z</time></trkpt>
<trkpt lat="53.0742518346" lon="-4.0781205018"><ele>1040</ele><time>2013-08-08T10:12:32Z</time></trkpt>
<trkpt lat="53.0741621653" lon="-4.0783003330"><ele>1037</ele><time>2013-08-08T10:12:46Z</time></trkpt>
<trkpt lat="53.0740581671" lon="-4.0784473340"><ele>1033</ele><time>2013-08-08T10:13:01Z</time></trkpt>
<trkpt lat="53.0739355008" lon="-4.0785811663"><ele>1031</ele><time>2013-08-08T10:13:13Z</time></trkpt>
<trkpt lat="53.0738268296" lon="-4.0787371635"><ele>1029</ele><time>2013-08-08T10:13:25Z</time></trkpt>
<trkpt lat="53.0737258355" lon="-4.0789155006"><ele>1027</ele><time>2013-08-08T10:13:37Z</time></trkpt>
<trkpt lat="53.0735855023" lon="-4.0789805015"><ele>1024</ele><time>2013-08-08T10:13:50Z</time></trkpt>
<trkpt lat="53.0734695037" lon="-4.0791133324"><ele>1021</ele><time>2013-08-08T10:14:04Z</time></trkpt>
<trkpt lat="53.0733473301" lon="-4.0792184989"><ele>1019</ele><time>2013-08-08T10:14:17Z</time></trkpt>
<trkpt lat="53.0732249975" lon="-4.0793133338"><ele>1017</ele><time>2013-08-08T10:14:28Z</time></trkpt>
<trkpt lat="53.0730946700" lon="-4.0794041634"><ele>1015</ele><time>2013-08-08T10:14:38Z</time></trkpt>
<trkpt lat="53.0729648352" lon="-4.0794725021"><ele>1014</ele><time>2013-08-08T10:14:48Z</time></trkpt>
<trkpt lat="53.0728251696" lon="-4.0795463324"><ele>1012</ele><time>2013-08-08T10:15:01Z</time></trkpt>
<trkpt lat="53.0726950010" lon="-4.0796209971"><ele>1010</ele><time>2013-08-08T10:15:11Z</time></trkpt>
<trkpt lat="53.0725563367" lon="-4.0796391646"><ele>1009</ele><time>2013-08-08T10:15:22Z</time></trkpt>
<trkpt lat="53.0724200010" lon="-4.0796590010"><ele>1008</ele><time>2013-08-08T10:15:33Z</time></trkpt>
<trkpt lat="53.0722798347" lon="-4.0796531677"><ele>1007</ele><time>2013-08-08T10:15:45Z</time></trkpt>
<trkpt lat="53.0721293370" lon="-4.0796651681"><ele>1006</ele><time>2013-08-08T10:15:57Z</time></trkpt>
<trkpt lat="53.0719846646" lon="-4.0796273311"><ele>1005</ele><time>2013-08-08T10:16:07Z</time></trkpt>
<trkpt lat="53.0718499978" lon="-4.0796028296"><ele>1005</ele><time>2013-08-08T10:16:17Z</time></trkpt>
<trkpt lat="53.0717271646" lon="-4.0794994990"><ele>1003</ele><time>2013-08-08T10:16:45Z</time></trkpt>
<trkpt lat="53.0715968370" lon="-4.0794306676"><ele>1003</ele><time>2013-08-08T10:16:58Z</time></trkpt>
<trkpt lat="53.0714728355" lon="-4.0793046633"><ele>1004</ele><time>2013-08-08T10:17:11Z</time></trkpt>
<trkpt lat="53.0713430007" lon="-4.0792078336"><ele>1006</ele><time>2013-08-08T10:17:27Z</time></trkpt>
<trkpt lat="53.0712053299" lon="-4.0791733344"><ele>1007</ele><time>2013-08-08T10:17:39Z</time></trkpt>
<trkpt lat="53.0710771640" lon="-4.0790756702"><ele>1008</ele><time>2013-08-08T10:17:52Z</time></trkpt>
<trkpt lat="53.0709516684" lon="-4.0789838314"><ele>1011</ele><time>2013-08-08T10:18:15Z</time></trkpt>
<trkpt lat="53.0708498319" lon="-4.0788323323"><ele>1012</ele><time>2013-08-08T10:18:31Z</time></trkpt>
<trkpt lat="53.0707645019" lon="-4.0786448320"><ele>1015</ele><time>2013-08-08T10:18:49Z</time></trkpt>
<trkpt lat="53.0706441641" lon="-4.0785251697"><ele>1018</ele><time>2013-08-08T10:19:09Z</time></trkpt>
<trkpt lat="53.0705610037" lon="-4.0783411662"><ele>1020</ele><time>2013-08-08T10:19:24Z</time></trkpt>
<trkpt lat="53.0704416672" lon="-4.0782333295"><ele>1025</ele><time>2013-08-08T10:19:56Z</time></trkpt>
<trkpt lat="53.0703420003" lon="-4.0780786673"><ele>1028</ele><time>2013-08-08T10:20:14Z</time></trkpt>
<trkpt lat="53.0702086687" lon="-4.0780096690"><ele>1032</ele><time>2013-08-08T10:20:31Z</time></trkpt>
<trkpt lat="53.0700863361" lon="-4.0778981686"><ele>1035</ele><time>2013-08-08T10:20:45Z</time></trkpt>
<trkpt lat="53.0699463367" lon="-4.0778685013"><ele>1036</ele><time>2013-08-08T10:20:57Z</time></trkpt>
<trkpt lat="53.0698180040" lon="-4.0777779977"><ele>1039</ele><time>2013-08-08T10:21:08Z</time></trkpt>
<trkpt lat="53.0697073301" lon="-4.0776405017"><ele>1042</ele><time>2013-08-08T10:21:22Z</time></trkpt>
<trkpt lat="53.0695806662" lon="-4.0775523345"><ele>1044</ele><time>2013-08-08T10:21:33Z</time></trkpt>
<trkpt lat="53.0694463332" lon="-4.0775141637"><ele>1046</ele><time>2013-08-08T10:21:47Z</time></trkpt>
<trkpt lat="53.0693214973" lon="-4.0774231672"><ele>1048</ele><time>2013-08-08T10:21:59Z</time></trkpt>
<trkpt lat="53.0691896677" lon="-4.0773324966"><ele>1051</ele><time>2013-08-08T10:22:12Z</time></trkpt>
<trkpt lat="53.0690721671" lon="-4.0772005002"><ele>1054</ele><time>2013-08-08T10:22:24Z</time></trkpt>
<trkpt lat="53.0689463298" lon="-4.0770924966"><ele>1057</ele><time>2013-08-08T10:22:41Z</time></trkpt>
<trkpt lat="53.0688306650" lon="-4.0769711653"><ele>1060</ele><time>2013-08-08T10:22:54Z</time></trkpt>
<trkpt lat="53.0687071641" lon="-4.0768611670"><ele>1063</ele><time>2013-08-08T10:23:12Z</time></trkpt>
<trkpt lat="53.0686371644" lon="-4.0766588370"><ele>1066</ele><time>2013-08-08T10:23:35Z</time></trkpt>
<trkpt lat="53.0685538371" lon="-4.0764726639"><ele>1071</ele><time>2013-08-08T10:23:57Z</time></trkpt>
<trkpt lat="53.0684705019" lon="-4.0762913307"><ele>1076</ele><time>2013-08-08T10:24:24Z</time></trkpt>
<trkpt lat="53.0684316635" lon="-4.0765071630"><ele>1087</ele><time>2013-08-08T10:27:38Z</time></trkpt>
<trkpt lat="53.0683018366" lon="-4.0765841643"><ele>1086</ele><time>2013-08-08T10:27:55Z</time></trkpt>
<trkpt lat="53.0681694984" lon="-4.0766434987"><ele>1085</ele><time>2013-08-08T10:28:14Z</time></trkpt>
<trkpt lat="53.0681735039" lon="-4.0768768311"><ele>1078</ele><time>2013-08-08T10:32:04Z</time></trkpt>
<trkpt lat="53.0681813320" lon="-4.0766470035"><ele>1077</ele><time>2013-08-08T10:32:54Z</time></trkpt>
<trkpt lat="53.0680655003" lon="-4.0767743349"><ele>1078</ele><time>2013-08-08T10:33:56Z</time></trkpt>
<trkpt lat="53.0679723342" lon="-4.0769371668"><ele>1079</ele><time>2013-08-08T10:35:01Z</time></trkpt>
<trkpt lat="53.0681715012" lon="-4.0767758369"><ele>1079</ele><time>2013-08-08T10:35:11Z</time></trkpt>
<trkpt lat="53.0680344979" lon="-4.0766968330"><ele>1075</ele><time>2013-08-08T10:41:40Z</time></trkpt>
<trkpt lat="53.0678948323" lon="-4.0767390013"><ele>1075</ele><time>2013-08-08T10:41:51Z</time></trkpt>
<trkpt lat="53.0679608345" lon="-4.0769648314"><ele>1075</ele><time>2013-08-08T10:42:03Z</time></trkpt>
<trkpt lat="53.0678631703" lon="-4.0771203359"><ele>1074</ele><time>2013-08-08T10:42:33Z</time></trkpt>
<trkpt lat="53.0677474976" lon="-4.0772571643"><ele>1069</ele><time>2013-08-08T10:43:06Z</time></trkpt>
<trkpt lat="53.0676151673" lon="-4.0773043315"><ele>1063</ele><time>2013-08-08T10:43:35Z</time></trkpt>
<trkpt lat="53.0676024993" lon="-4.0775308371"><ele>1062</ele><time>2013-08-08T10:43:48Z</time></trkpt>
<trkpt lat="53.0676275015" lon="-4.0777531703"><ele>1055</ele><time>2013-08-08T10:44:43Z</time></trkpt>
<trkpt lat="53.0674818357" lon="-4.0778141658"><ele>1054</ele><time>2013-08-08T10:45:06Z</time></trkpt>
<trkpt lat="53.0673446655" lon="-4.0778143326"><ele>1045</ele><time>2013-08-08T10:45:35Z</time></trkpt>
<trkpt lat="53.0672056675" lon="-4.0778458357"><ele>1041</ele><time>2013-08-08T10:45:59Z</time></trkpt>
<trkpt lat="53.0670679967" lon="-4.0778871695"><ele>1038</ele><time>2013-08-08T10:46:13Z</time></trkpt>
<trkpt lat="53.0669326703" lon="-4.0779616674"><ele>1036</ele><time>2013-08-08T10:46:27Z</time></trkpt>
<trkpt lat="53.0667934974" lon="-4.0779210011"><ele>1032</ele><time>2013-08-08T10:46:41Z</time></trkpt>
<trkpt lat="53.0668109973" lon="-4.0776928345"><ele>1027</ele><time>2013-08-08T10:47:11Z</time></trkpt>
<trkpt lat="53.0668468316" lon="-4.0774703344"><ele>1023</ele><time>2013-08-08T10:47:38Z</time></trkpt>
<trkpt lat="53.0668556690" lon="-4.0772376696"><ele>1019</ele><time>2013-08-08T10:48:08Z</time></trkpt>
<trkpt lat="53.0668291648" lon="-4.0770116647"><ele>1007</ele><time>2013-08-08T10:49:00Z</time></trkpt>
<trkpt lat="53.0667183320" lon="-4.0768829981"><ele>1004</ele><time>2013-08-08T10:49:24Z</time></trkpt>
<trkpt lat="53.0668021679" lon="-4.0767040014"><ele>998</ele><time>2013-08-08T10:49:50Z</time></trkpt>
<trkpt lat="53.0667548339" lon="-4.0764856656"><ele>995</ele><time>2013-08-08T10:50:12Z</time></trkpt>
<trkpt lat="53.0668054978" lon="-4.0762748321"><ele>991</ele><time>2013-08-08T10:50:36Z</time></trkpt>
<trkpt lat="53.0668373346" lon="-4.0760511637"><ele>987</ele><time>2013-08-08T10:50:57Z</time></trkpt>
<trkpt lat="53.0668058316" lon="-4.0758333365"><ele>984</ele><time>2013-08-08T10:51:13Z</time></trkpt>
<trkpt lat="53.0668536663" lon="-4.0756231705"><ele>981</ele><time>2013-08-08T10:51:31Z</time></trkpt>
<trkpt lat="53.0668528318" lon="-4.0753928343"><ele>969</ele><time>2013-08-08T10:52:34Z</time></trkpt>
<trkpt lat="53.0668736696" lon="-4.0751705011"><ele>964</ele><time>2013-08-08T10:53:01Z</time></trkpt>
<trkpt lat="53.0668236653" lon="-4.0749584993"><ele>962</ele><time>2013-08-08T10:53:20Z</time></trkpt>
<trkpt lat="53.0668071667" lon="-4.0747256676"><ele>957</ele><time>2013-08-08T10:53:52Z</time></trkpt>
<trkpt lat="53.0668918371" lon="-4.0745431662"><ele>949</ele><time>2013-08-08T10:54:28Z</time></trkpt>
<trkpt lat="53.0668191671" lon="-4.0743439992"><ele>945</ele><time>2013-08-08T10:54:45Z</time></trkpt>
<trkpt lat="53.0668048302" lon="-4.0741185029"><ele>927</ele><time>2013-08-08T10:56:02Z</time></trkpt>
<trkpt lat="53.0667878310" lon="-4.0738948345"><ele>916</ele><time>2013-08-08T10:56:39Z</time></trkpt>
<trkpt lat="53.0668130000" lon="-4.0736709992"><ele>901</ele><time>2013-08-08T10:57:48Z</time></trkpt>
<trkpt lat="53.0668211699" lon="-4.0734418313"><ele>897</ele><time>2013-08-08T10:58:25Z</time></trkpt>
<trkpt lat="53.0667538325" lon="-4.0732468367"><ele>888</ele><time>2013-08-08T10:59:28Z</time></trkpt>
<trkpt lat="53.0667644978" lon="-4.0730171680"><ele>884</ele><time>2013-08-08T10:59:58Z</time></trkpt>
<trkpt lat="53.0666483323" lon="-4.0728979985"><ele>880</ele><time>2013-08-08T11:00:32Z</time></trkpt>
<trkpt lat="53.0666026672" lon="-4.0726856629"><ele>872</ele><time>2013-08-08T11:01:26Z</time></trkpt>
<trkpt lat="53.0665951649" lon="-4.0724459966"><ele>865</ele><time>2013-08-08T11:01:56Z</time></trkpt>
<trkpt lat="53.0666563352" lon="-4.0722463369"><ele>859</ele><time>2013-08-08T11:02:31Z</time></trkpt>
<trkpt lat="53.0666263342" lon="-4.0720180035"><ele>842</ele><time>2013-08-08T11:03:32Z</time></trkpt>
<trkpt lat="53.0666733344" lon="-4.0718048334"><ele>839</ele><time>2013-08-08T11:03:46Z</time></trkpt>
<trkpt lat="53.0666735013" lon="-4.0715809981"><ele>837</ele><time>2013-08-08T11:03:57Z</time></trkpt>
<trkpt lat="53.0666631659" lon="-4.0713563363"><ele>835</ele><time>2013-08-08T11:04:08Z</time></trkpt>
<trkpt lat="53.0666790009" lon="-4.0711273352"><ele>834</ele><time>2013-08-08T11:04:19Z</time></trkpt>
<trkpt lat="53.0666668336" lon="-4.0708830039"><ele>833</ele><time>2013-08-08T11:04:32Z</time></trkpt>
<trkpt lat="53.0667074998" lon="-4.0706663370"><ele>832</ele><time>2013-08-08T11:04:43Z</time></trkpt>
<trkpt lat="53.0666418314" lon="-4.0704456647"><ele>830</ele><time>2013-08-08T11:04:58Z</time></trkpt>
<trkpt lat="53.0666193326" lon="-4.0702234983"><ele>828</ele><time>2013-08-08T11:05:17Z</time></trkpt>
<trkpt lat="53.0665573319" lon="-4.0700145006"><ele>827</ele><time>2013-08-08T11:05:32Z</time></trkpt>
<trkpt lat="53.0665073315" lon="-4.0697993358"><ele>826</ele><time>2013-08-08T11:05:48Z</time></trkpt>
<trkpt lat="53.0664981683" lon="-4.0695683320"><ele>825</ele><time>2013-08-08T11:06:03Z</time></trkpt>
<trkpt lat="53.0665203333" lon="-4.0693463326"><ele>824</ele><time>2013-08-08T11:06:19Z</time></trkpt>
<trkpt lat="53.0665574988" lon="-4.0691223303"><ele>823</ele><time>2013-08-08T11:06:33Z</time></trkpt>
<trkpt lat="53.0664740006" lon="-4.0689353307"><ele>822</ele><time>2013-08-08T11:06:49Z</time></trkpt>
<trkpt lat="53.0663581649" lon="-4.0688201666"><ele>821</ele><time>2013-08-08T11:07:04Z</time></trkpt>
<trkpt lat="53.0662421664" lon="-4.0686898311"><ele>818</ele><time>2013-08-08T11:07:26Z</time></trkpt>
<trkpt lat="53.0661046664" lon="-4.0686599970"><ele>816</ele><time>2013-08-08T11:07:48Z</time></trkpt>
<trkpt lat="53.0659876664" lon="-4.0685253302"><ele>814</ele><time>2013-08-08T11:08:06Z</time></trkpt>
<trkpt lat="53.0658656677" lon="-4.0684061686"><ele>812</ele><time>2013-08-08T11:08:23Z</time></trkpt>
<trkpt lat="53.0657516678" lon="-4.0682739973"><ele>808</ele><time>2013-08-08T11:08:49Z</time></trkpt>
<trkpt lat="53.0656546672" lon="-4.0681135019"><ele>804</ele><time>2013-08-08T11:09:13Z</time></trkpt>
<trkpt lat="53.0655996680" lon="-4.0679049969"><ele>802</ele><time>2013-08-08T11:09:29Z</time></trkpt>
<trkpt lat="53.0655508320" lon="-4.0676818371"><ele>798</ele><time>2013-08-08T11:09:44Z</time></trkpt>
<trkpt lat="53.0654756665" lon="-4.0674868345"><ele>797</ele><time>2013-08-08T11:09:57Z</time></trkpt>
<trkpt lat="53.0654206673" lon="-4.0672661702"><ele>795</ele><time>2013-08-08T11:10:12Z</time></trkpt>
<trkpt lat="53.0653773348" lon="-4.0670483351"><ele>794</ele><time>2013-08-08T11:10:30Z</time></trkpt>
<trkpt lat="53.0652920008" lon="-4.0668726683"><ele>793</ele><time>2013-08-08T11:10:44Z</time></trkpt>
<trkpt lat="53.0651564995" lon="-4.0667800029"><ele>792</ele><time>2013-08-08T11:11:03Z</time></trkpt>
<trkpt lat="53.0650166670" lon="-4.0668046633"><ele>790</ele><time>2013-08-08T11:11:24Z</time></trkpt>
<trkpt lat="53.0649038315" lon="-4.0666569988"><ele>787</ele><time>2013-08-08T11:12:30Z</time></trkpt>
<trkpt lat="53.0648513317" lon="-4.0664353331"><ele>786</ele><time>2013-08-08T11:12:42Z</time></trkpt>
<trkpt lat="53.0647791664" lon="-4.0662268321"><ele>785</ele><time>2013-08-08T11:12:54Z</time></trkpt>
<trkpt lat="53.0646973332" lon="-4.0660161654"><ele>784</ele><time>2013-08-08T11:13:10Z</time></trkpt>
<trkpt lat="53.0646329999" lon="-4.0658183336"><ele>784</ele><time>2013-08-08T11:13:29Z</time></trkpt>
<trkpt lat="53.0645843347" lon="-4.0656041662"><ele>784</ele><time>2013-08-08T11:13:45Z</time></trkpt>
<trkpt lat="53.0645050009" lon="-4.0654060006"><ele>783</ele><time>2013-08-08T11:14:00Z</time></trkpt>
<trkpt lat="53.0644053340" lon="-4.0652361671"><ele>782</ele><time>2013-08-08T11:14:22Z</time></trkpt>
<trkpt lat="53.0643073320" lon="-4.0650818348"><ele>781</ele><time>2013-08-08T11:14:40Z</time></trkpt>
<trkpt lat="53.0642426650" lon="-4.0648751656"><ele>780</ele><time>2013-08-08T11:14:57Z</time></trkpt>
<trkpt lat="53.0641634981" lon="-4.0646923343"><ele>779</ele><time>2013-08-08T11:15:11Z</time></trkpt>
<trkpt lat="53.0640840014" lon="-4.0645046671"><ele>778</ele><time>2013-08-08T11:15:29Z</time></trkpt>
<trkpt lat="53.0639873346" lon="-4.0643238346"><ele>777</ele><time>2013-08-08T11:15:39Z</time></trkpt>
<trkpt lat="53.0639266650" lon="-4.0641131679"><ele>775</ele><time>2013-08-08T11:15:50Z</time></trkpt>
<trkpt lat="53.0638526678" lon="-4.0639045000"><ele>774</ele><time>2013-08-08T11:16:04Z</time></trkpt>
<trkpt lat="53.0637445013" lon="-4.0637426654"><ele>771</ele><time>2013-08-08T11:16:47Z</time></trkpt>
<trkpt lat="53.0636533340" lon="-4.0635770003"><ele>769</ele><time>2013-08-08T11:17:05Z</time></trkpt>
<trkpt lat="53.0635694981" lon="-4.0633711656"><ele>768</ele><time>2013-08-08T11:17:17Z</time></trkpt>
<trkpt lat="53.0635204991" lon="-4.0631448348"><ele>767</ele><time>2013-08-08T11:17:30Z</time></trkpt>
<trkpt lat="53.0633919994" lon="-4.0630549987"><ele>766</ele><time>2013-08-08T11:17:41Z</time></trkpt>
<trkpt lat="53.0632668336" lon="-4.0629526655"><ele>765</ele><time>2013-08-08T11:17:56Z</time></trkpt>
<trkpt lat="53.0631680012" lon="-4.0627806664"><ele>764</ele><time>2013-08-08T11:18:09Z</time></trkpt>
<trkpt lat="53.0630784988" lon="-4.0626101653"><ele>763</ele><time>2013-08-08T11:18:24Z</time></trkpt>
<trkpt lat="53.0630076647" lon="-4.0624095003"><ele>763</ele><time>2013-08-08T11:18:45Z</time></trkpt>
<trkpt lat="53.0629018346" lon="-4.0622461677"><ele>761</ele><time>2013-08-08T11:18:59Z</time></trkpt>
<trkpt lat="53.0627871672" lon="-4.0621214986"><ele>759</ele><time>2013-08-08T11:19:18Z</time></trkpt>
<trkpt lat="53.0626924992" lon="-4.0619363348"><ele>757</ele><time>2013-08-08T11:19:34Z</time></trkpt>
<trkpt lat="53.0625963330" lon="-4.0617733320"><ele>755</ele><time>2013-08-08T11:19:50Z</time></trkpt>
<trkpt lat="53.0624945005" lon="-4.0616256674"><ele>754</ele><time>2013-08-08T11:20:05Z</time></trkpt>
<trkpt lat="53.0623844981" lon="-4.0614539981"><ele>752</ele><time>2013-08-08T11:20:17Z</time></trkpt>
<trkpt lat="53.0622453332" lon="-4.0614295006"><ele>750</ele><time>2013-08-08T11:20:37Z</time></trkpt>
<trkpt lat="53.0621463339" lon="-4.0612649997"><ele>749</ele><time>2013-08-08T11:21:09Z</time></trkpt>
<trkpt lat="53.0620458325" lon="-4.0611096660"><ele>750</ele><time>2013-08-08T11:21:47Z</time></trkpt>
<trkpt lat="53.0620336652" lon="-4.0608773351"><ele>754</ele><time>2013-08-08T11:23:27Z</time></trkpt>
<trkpt lat="53.0619398316" lon="-4.0607003331"><ele>755</ele><time>2013-08-08T11:23:47Z</time></trkpt>
<trkpt lat="53.0618545016" lon="-4.0605175018"><ele>758</ele><time>2013-08-08T11:24:20Z</time></trkpt>
<trkpt lat="53.0617181659" lon="-4.0604336659"><ele>761</ele><time>2013-08-08T11:24:55Z</time></trkpt>
<trkpt lat="53.0615883350" lon="-4.0603380005"><ele>768</ele><time>2013-08-08T11:25:54Z</time></trkpt>
<trkpt lat="53.0614530007" lon="-4.0602938334"><ele>784</ele><time>2013-08-08T11:27:28Z</time></trkpt>
<trkpt lat="53.0613238335" lon="-4.0602236668"><ele>786</ele><time>2013-08-08T11:28:02Z</time></trkpt>
<trkpt lat="53.0612259984" lon="-4.0600575010"><ele>789</ele><time>2013-08-08T11:28:31Z</time></trkpt>
<trkpt lat="53.0610901674" lon="-4.0600248337"><ele>792</ele><time>2013-08-08T11:28:59Z</time></trkpt>
<trkpt lat="53.0609743317" lon="-4.0599021673"><ele>794</ele><time>2013-08-08T11:29:24Z</time></trkpt>
<trkpt lat="53.0608438333" lon="-4.0598124981"><ele>795</ele><time>2013-08-08T11:29:45Z</time></trkpt>
<trkpt lat="53.0607546647" lon="-4.0596311649"><ele>798</ele><time>2013-08-08T11:30:16Z</time></trkpt>
<trkpt lat="53.0606865009" lon="-4.0594246666"><ele>804</ele><time>2013-08-08T11:31:18Z</time></trkpt>
<trkpt lat="53.0605771661" lon="-4.0592803319"><ele>809</ele><time>2013-08-08T11:32:00Z</time></trkpt>
<trkpt lat="53.0605700016" lon="-4.0590553323"><ele>813</ele><time>2013-08-08T11:32:54Z</time></trkpt>
<trkpt lat="53.0604444981" lon="-4.0589686672"><ele>816</ele><time>2013-08-08T11:33:15Z</time></trkpt>
<trkpt lat="53.0604320010" lon="-4.0587393324"><ele>827</ele><time>2013-08-08T11:34:06Z</time></trkpt>
<trkpt lat="53.0603044987" lon="-4.0586326679"><ele>833</ele><time>2013-08-08T11:34:41Z</time></trkpt>
<trkpt lat="53.0602113326" lon="-4.0584688346"><ele>839</ele><time>2013-08-08T11:35:21Z</time></trkpt>
<trkpt lat="53.0601078351" lon="-4.0583156665"><ele>850</ele><time>2013-08-08T11:36:22Z</time></trkpt>
<trkpt lat="53.0600361665" lon="-4.0581129988"><ele>854</ele><time>2013-08-08T11:37:02Z</time></trkpt>
<trkpt lat="53.0599269986" lon="-4.0579660018"><ele>866</ele><time>2013-08-08T11:38:57Z</time></trkpt>
<trkpt lat="53.0598735015" lon="-4.0577496648"><ele>875</ele><time>2013-08-08T11:40:26Z</time></trkpt>
<trkpt lat="53.0597868323" lon="-4.0575728337"><ele>878</ele><time>2013-08-08T11:41:02Z</time></trkpt>
<trkpt lat="53.0596945008" lon="-4.0573945006"><ele>889</ele><time>2013-08-08T11:42:02Z</time></trkpt>
<trkpt lat="53.0595976671" lon="-4.0572278341"><ele>894</ele><time>2013-08-08T11:42:45Z</time></trkpt>
<trkpt lat="53.0594901681" lon="-4.0570889990"><ele>898</ele><time>2013-08-08T11:43:07Z</time></trkpt>
<trkpt lat="53.0593884985" lon="-4.0569288333"><ele>901</ele><time>2013-08-08T11:44:00Z</time></trkpt>
<trkpt lat="53.0592811664" lon="-4.0567888339"><ele>901</ele><time>2013-08-08T11:44:29Z</time></trkpt>
<trkpt lat="53.0591551661" lon="-4.0566886663"><ele>898</ele><time>2013-08-08T11:45:01Z</time></trkpt>
<trkpt lat="53.0590558330" lon="-4.0565225005"><ele>895</ele><time>2013-08-08T11:45:29Z</time></trkpt>
<trkpt lat="53.0589668314" lon="-4.0563364983"><ele>893</ele><time>2013-08-08T11:45:45Z</time></trkpt>
<trkpt lat="53.0588930011" lon="-4.0561428348"><ele>890</ele><time>2013-08-08T11:46:13Z</time></trkpt>
<trkpt lat="53.0588613351" lon="-4.0559193333"><ele>887</ele><time>2013-08-08T11:46:41Z</time></trkpt>
<trkpt lat="53.0588436683" lon="-4.0556855003"><ele>887</ele><time>2013-08-08T11:47:22Z</time></trkpt>
<trkpt lat="53.0588306665" lon="-4.0554523349"><ele>887</ele><time>2013-08-08T11:47:39Z</time></trkpt>
<trkpt lat="53.0588071664" lon="-4.0552201668"><ele>889</ele><time>2013-08-08T11:48:09Z</time></trkpt>
<trkpt lat="53.0588053346" lon="-4.0549900015"><ele>890</ele><time>2013-08-08T11:48:40Z</time></trkpt>
<trkpt lat="53.0587541660" lon="-4.0547815005"><ele>891</ele><time>2013-08-08T11:48:57Z</time></trkpt>
<trkpt lat="53.0586713314" lon="-4.0545945009"><ele>897</ele><time>2013-08-08T11:52:16Z</time></trkpt>
<trkpt lat="53.0585920016" lon="-4.0544130007"><ele>895</ele><time>2013-08-08T11:53:07Z</time></trkpt>
<trkpt lat="53.0584596674" lon="-4.0543483337"><ele>891</ele><time>2013-08-08T11:53:49Z</time></trkpt>
<trkpt lat="53.0583810012" lon="-4.0541530013"><ele>888</ele><time>2013-08-08T11:54:11Z</time></trkpt>
<trkpt lat="53.0584301670" lon="-4.0539311647"><ele>883</ele><time>2013-08-08T11:54:56Z</time></trkpt>
<trkpt lat="53.0583948334" lon="-4.0536831657"><ele>883</ele><time>2013-08-08T11:55:06Z</time></trkpt>
<trkpt lat="53.0584691683" lon="-4.0534888347"><ele>878</ele><time>2013-08-08T11:55:44Z</time></trkpt>
<trkpt lat="53.0585136652" lon="-4.0532691677"><ele>877</ele><time>2013-08-08T11:56:00Z</time></trkpt>
<trkpt lat="53.0585151672" lon="-4.0530453324"><ele>875</ele><time>2013-08-08T11:56:20Z</time></trkpt>
<trkpt lat="53.0585161686" lon="-4.0528183341"><ele>869</ele><time>2013-08-08T11:56:54Z</time></trkpt>
<trkpt lat="53.0584789991" lon="-4.0525998314"><ele>861</ele><time>2013-08-08T11:57:33Z</time></trkpt>
<trkpt lat="53.0585429986" lon="-4.0523821672"><ele>857</ele><time>2013-08-08T11:58:04Z</time></trkpt>
<trkpt lat="53.0584603349" lon="-4.0521766663"><ele>851</ele><time>2013-08-08T11:58:37Z</time></trkpt>
<trkpt lat="53.0583246668" lon="-4.0522156676"><ele>845</ele><time>2013-08-08T11:59:00Z</time></trkpt>
<trkpt lat="53.0582870007" lon="-4.0519988338"><ele>836</ele><time>2013-08-08T11:59:38Z</time></trkpt>
<trkpt lat="53.0581678351" lon="-4.0518768350"><ele>831</ele><time>2013-08-08T12:00:00Z</time></trkpt>
<trkpt lat="53.0581996679" lon="-4.0516583323"><ele>828</ele><time>2013-08-08T12:00:28Z</time></trkpt>
<trkpt lat="53.0581889987" lon="-4.0514260014"><ele>826</ele><time>2013-08-08T12:00:38Z</time></trkpt>
<trkpt lat="53.0581768314" lon="-4.0512019992"><ele>824</ele><time>2013-08-08T12:00:56Z</time></trkpt>
<trkpt lat="53.0582175016" lon="-4.0509823322"><ele>822</ele><time>2013-08-08T12:01:20Z</time></trkpt>
<trkpt lat="53.0582555016" lon="-4.0507505020"><ele>818</ele><time>2013-08-08T12:01:42Z</time></trkpt>
<trkpt lat="53.0582711657" lon="-4.0505199989"><ele>816</ele><time>2013-08-08T12:02:01Z</time></trkpt>
<trkpt lat="53.0583349983" lon="-4.0503061652"><ele>814</ele><time>2013-08-08T12:02:17Z</time></trkpt>
<trkpt lat="53.0584151665" lon="-4.0501258334"><ele>812</ele><time>2013-08-08T12:02:41Z</time></trkpt>
<trkpt lat="53.0584183335" lon="-4.0498991648"><ele>812</ele><time>2013-08-08T12:02:58Z</time></trkpt>
<trkpt lat="53.0583835006" lon="-4.0496811668"><ele>812</ele><time>2013-08-08T12:03:12Z</time></trkpt>
<trkpt lat="53.0584281683" lon="-4.0494626681"><ele>812</ele><time>2013-08-08T12:03:25Z</time></trkpt>
<trkpt lat="53.0584583322" lon="-4.0492353320"><ele>812</ele><time>2013-08-08T12:03:41Z</time></trkpt>
<trkpt lat="53.0585918347" lon="-4.0491703351"><ele>812</ele><time>2013-08-08T12:03:53Z</time></trkpt>
<trkpt lat="53.0586730003" lon="-4.0489703337"><ele>812</ele><time>2013-08-08T12:04:05Z</time></trkpt>
<trkpt lat="53.0587851683" lon="-4.0488263329"><ele>812</ele><time>2013-08-08T12:04:16Z</time></trkpt>
<trkpt lat="53.0588873347" lon="-4.0486748338"><ele>811</ele><time>2013-08-08T12:04:27Z</time></trkpt>
<trkpt lat="53.0589890003" lon="-4.0485108336"><ele>811</ele><time>2013-08-08T12:04:42Z</time></trkpt>
<trkpt lat="53.0590833346" lon="-4.0483420014"><ele>810</ele><time>2013-08-08T12:04:55Z</time></trkpt>
<trkpt lat="53.0591788332" lon="-4.0481758316"><ele>807</ele><time>2013-08-08T12:05:30Z</time></trkpt>
<trkpt lat="53.0592896660" lon="-4.0480430007"><ele>806</ele><time>2013-08-08T12:05:48Z</time></trkpt>
<trkpt lat="53.0593833327" lon="-4.0478753328"><ele>804</ele><time>2013-08-08T12:06:06Z</time></trkpt>
<trkpt lat="53.0594536662" lon="-4.0476793329"><ele>800</ele><time>2013-08-08T12:06:30Z</time></trkpt>
<trkpt lat="53.0595563332" lon="-4.0475336671"><ele>797</ele><time>2013-08-08T12:06:50Z</time></trkpt>
<trkpt lat="53.0595029990" lon="-4.0473273317"><ele>786</ele><time>2013-08-08T12:07:37Z</time></trkpt>
<trkpt lat="53.0595950007" lon="-4.0471526663"><ele>782</ele><time>2013-08-08T12:07:56Z</time></trkpt>
<trkpt lat="53.0596576651" lon="-4.0469486674"><ele>778</ele><time>2013-08-08T12:08:32Z</time></trkpt>
<trkpt lat="53.0597963333" lon="-4.0468940020"><ele>774</ele><time>2013-08-08T12:09:01Z</time></trkpt>
<trkpt lat="53.0599266648" lon="-4.0467921654"><ele>774</ele><time>2013-08-08T12:09:16Z</time></trkpt>
<trkpt lat="53.0599916657" lon="-4.0465830008"><ele>772</ele><time>2013-08-08T12:09:36Z</time></trkpt>
<trkpt lat="53.0600711664" lon="-4.0463891665"><ele>766</ele><time>2013-08-08T12:09:59Z</time></trkpt>
<trkpt lat="53.0602319996" lon="-4.0464704990"><ele>759</ele><time>2013-08-08T12:10:23Z</time></trkpt>
<trkpt lat="53.0603433331" lon="-4.0463218331"><ele>751</ele><time>2013-08-08T12:10:50Z</time></trkpt>
<trkpt lat="53.0604741653" lon="-4.0462410013"><ele>748</ele><time>2013-08-08T12:11:04Z</time></trkpt>
<trkpt lat="53.0605898341" lon="-4.0461104989"><ele>745</ele><time>2013-08-08T12:11:19Z</time></trkpt>
<trkpt lat="53.0606775006" lon="-4.0459349990"><ele>742</ele><time>2013-08-08T12:11:42Z</time></trkpt>
<trkpt lat="53.0608335018" lon="-4.0459485014"><ele>740</ele><time>2013-08-08T12:11:52Z</time></trkpt>
<trkpt lat="53.0608365019" lon="-4.0457004984"><ele>738</ele><time>2013-08-08T12:12:07Z</time></trkpt>
<trkpt lat="53.0609339992" lon="-4.0455408335"><ele>736</ele><time>2013-08-08T12:12:21Z</time></trkpt>
<trkpt lat="53.0610258341" lon="-4.0453658342"><ele>734</ele><time>2013-08-08T12:12:37Z</time></trkpt>
<trkpt lat="53.0611483335" lon="-4.0452518344"><ele>732</ele><time>2013-08-08T12:12:51Z</time></trkpt>
<trkpt lat="53.0612813314" lon="-4.0452123324"><ele>731</ele><time>2013-08-08T12:13:02Z</time></trkpt>
<trkpt lat="53.0613984982" lon="-4.0450919986"><ele>727</ele><time>2013-08-08T12:13:19Z</time></trkpt>
<trkpt lat="53.0615358353" lon="-4.0450270017"><ele>724</ele><time>2013-08-08T12:13:37Z</time></trkpt>
<trkpt lat="53.0616709987" lon="-4.0449948351"><ele>723</ele><time>2013-08-08T12:13:50Z</time></trkpt>
<trkpt lat="53.0615618348" lon="-4.0451299985"><ele>704</ele><time>2013-08-08T12:16:09Z</time></trkpt>
<trkpt lat="53.0616675019" lon="-4.0449833314"><ele>704</ele><time>2013-08-08T12:27:29Z</time></trkpt>
<trkpt lat="53.0618046681" lon="-4.0449538350"><ele>702</ele><time>2013-08-08T12:28:10Z</time></trkpt>
<trkpt lat="53.0618609985" lon="-4.0451646686"><ele>698</ele><time>2013-08-08T12:29:04Z</time></trkpt>
<trkpt lat="53.0619950016" lon="-4.0451209982"><ele>693</ele><time>2013-08-08T12:29:54Z</time></trkpt>
<trkpt lat="53.0620973349" lon="-4.0449708343"><ele>688</ele><time>2013-08-08T12:30:48Z</time></trkpt>
<trkpt lat="53.0622329990" lon="-4.0449703336"><ele>684</ele><time>2013-08-08T12:31:29Z</time></trkpt>
<trkpt lat="53.0623298327" lon="-4.0451340000"><ele>673</ele><time>2013-08-08T12:33:13Z</time></trkpt>
<trkpt lat="53.0624089996" lon="-4.0453185002"><ele>663</ele><time>2013-08-08T12:34:21Z</time></trkpt>
<trkpt lat="53.0625404994" lon="-4.0452681661"><ele>658</ele><time>2013-08-08T12:34:56Z</time></trkpt>
<trkpt lat="53.0626603325" lon="-4.0451640010"><ele>655</ele><time>2013-08-08T12:35:20Z</time></trkpt>
<trkpt lat="53.0627986670" lon="-4.0451140006"><ele>650</ele><time>2013-08-08T12:35:48Z</time></trkpt>
<trkpt lat="53.0629234989" lon="-4.0450139999"><ele>648</ele><time>2013-08-08T12:36:06Z</time></trkpt>
<trkpt lat="53.0630493323" lon="-4.0449303349"><ele>643</ele><time>2013-08-08T12:36:29Z</time></trkpt>
<trkpt lat="53.0631790002" lon="-4.0449975014"><ele>629</ele><time>2013-08-08T12:37:31Z</time></trkpt>
<trkpt lat="53.0632798314" lon="-4.0448368351"><ele>627</ele><time>2013-08-08T12:37:53Z</time></trkpt>
<trkpt lat="53.0634103338" lon="-4.0447559992"><ele>622</ele><time>2013-08-08T12:38:21Z</time></trkpt>
<trkpt lat="53.0635416667" lon="-4.0446698348"><ele>617</ele><time>2013-08-08T12:39:03Z</time></trkpt>
<trkpt lat="53.0636613329" lon="-4.0445544998"><ele>611</ele><time>2013-08-08T12:39:37Z</time></trkpt>
<trkpt lat="53.0637911677" lon="-4.0444374998"><ele>607</ele><time>2013-08-08T12:40:02Z</time></trkpt>
<trkpt lat="53.0639250000" lon="-4.0444035014"><ele>605</ele><time>2013-08-08T12:40:26Z</time></trkpt>
<trkpt lat="53.0640436649" lon="-4.0442784985"><ele>602</ele><time>2013-08-08T12:40:49Z</time></trkpt>
<trkpt lat="53.0641641657" lon="-4.0443825006"><ele>599</ele><time>2013-08-08T12:41:13Z</time></trkpt>
<trkpt lat="53.0642926653" lon="-4.0442869981"><ele>596</ele><time>2013-08-08T12:41:34Z</time></trkpt>
<trkpt lat="53.0644308329" lon="-4.0442745010"><ele>593</ele><time>2013-08-08T12:41:54Z</time></trkpt>
<trkpt lat="53.0645588319" lon="-4.0443496664"><ele>591</ele><time>2013-08-08T12:42:15Z</time></trkpt>
<trkpt lat="53.0646575014" lon="-4.0445056677"><ele>589</ele><time>2013-08-08T12:42:31Z</time></trkpt>
<trkpt lat="53.0647775014" lon="-4.0446153323"><ele>587</ele><time>2013-08-08T12:42:44Z</time></trkpt>
<trkpt lat="53.0648951650" lon="-4.0447348317"><ele>585</ele><time>2013-08-08T12:42:57Z</time></trkpt>
<trkpt lat="53.0650298317" lon="-4.0447033326"><ele>581</ele><time>2013-08-08T12:43:16Z</time></trkpt>
<trkpt lat="53.0651568333" lon="-4.0446178317"><ele>577</ele><time>2013-08-08T12:43:32Z</time></trkpt>
<trkpt lat="53.0652311683" lon="-4.0444276651"><ele>570</ele><time>2013-08-08T12:44:09Z</time></trkpt>
<trkpt lat="53.0653646668" lon="-4.0444691658"><ele>569</ele><time>2013-08-08T12:44:20Z</time></trkpt>
<trkpt lat="53.0653008342" lon="-4.0442706664"><ele>560</ele><time>2013-08-08T12:44:43Z</time></trkpt>
<trkpt lat="53.0653953314" lon="-4.0440928340"><ele>550</ele><time>2013-08-08T12:45:14Z</time></trkpt>
<trkpt lat="53.0654816667" lon="-4.0438991666"><ele>547</ele><time>2013-08-08T12:45:27Z</time></trkpt>
<trkpt lat="53.0655318340" lon="-4.0436876655"><ele>543</ele><time>2013-08-08T12:45:37Z</time></trkpt>
<trkpt lat="53.0655721664" lon="-4.0434736649"><ele>542</ele><time>2013-08-08T12:45:47Z</time></trkpt>
<trkpt lat="53.0657070001" lon="-4.0433555007"><ele>540</ele><time>2013-08-08T12:46:12Z</time></trkpt>
<trkpt lat="53.0658266664" lon="-4.0432436665"><ele>537</ele><time>2013-08-08T12:46:29Z</time></trkpt>
<trkpt lat="53.0659724991" lon="-4.0431955020"><ele>536</ele><time>2013-08-08T12:46:52Z</time></trkpt>
<trkpt lat="53.0660355012" lon="-4.0429781675"><ele>531</ele><time>2013-08-08T12:47:20Z</time></trkpt>
<trkpt lat="53.0661569993" lon="-4.0428641677"><ele>529</ele><time>2013-08-08T12:47:36Z</time></trkpt>
<trkpt lat="53.0662593325" lon="-4.0427086671"><ele>526</ele><time>2013-08-08T12:47:51Z</time></trkpt>
<trkpt lat="53.0663673321" lon="-4.0425715009"><ele>524</ele><time>2013-08-08T12:48:09Z</time></trkpt>
<trkpt lat="53.0665024996" lon="-4.0424901684"><ele>523</ele><time>2013-08-08T12:48:24Z</time></trkpt>
<trkpt lat="53.0666358352" lon="-4.0424298326"><ele>522</ele><time>2013-08-08T12:48:41Z</time></trkpt>
<trkpt lat="53.0667698304" lon="-4.0424871683"><ele>518</ele><time>2013-08-08T12:49:10Z</time></trkpt>
<trkpt lat="53.0669046640" lon="-4.0424523314"><ele>517</ele><time>2013-08-08T12:49:30Z</time></trkpt>
<trkpt lat="53.0670438369" lon="-4.0424536665"><ele>513</ele><time>2013-08-08T12:49:56Z</time></trkpt>
<trkpt lat="53.0671801647" lon="-4.0424196680"><ele>510</ele><time>2013-08-08T12:50:13Z</time></trkpt>
<trkpt lat="53.0673046668" lon="-4.0425245007"><ele>506</ele><time>2013-08-08T12:50:39Z</time></trkpt>
<trkpt lat="53.0674434980" lon="-4.0425853332"><ele>502</ele><time>2013-08-08T12:51:01Z</time></trkpt>
<trkpt lat="53.0675801675" lon="-4.0426120003"><ele>500</ele><time>2013-08-08T12:51:14Z</time></trkpt>
<trkpt lat="53.0677158356" lon="-4.0425548315"><ele>497</ele><time>2013-08-08T12:51:28Z</time></trkpt>
<trkpt lat="53.0679059982" lon="-4.0423586686"><time>2013-08-08T12:52:33Z</time></trkpt>
<trkpt lat="53.0677531640" lon="-4.0424009999"><ele>475</ele><time>2013-08-08T12:52:43Z</time></trkpt>
<trkpt lat="53.0678800027" lon="-4.0422991673"><ele>470</ele><time>2013-08-08T12:53:05Z</time></trkpt>
<trkpt lat="53.0680048307" lon="-4.0421971679"><ele>467</ele><time>2013-08-08T12:53:20Z</time></trkpt>
<trkpt lat="53.0681186676" lon="-4.0420721650"><ele>466</ele><time>2013-08-08T12:53:34Z</time></trkpt>
<trkpt lat="53.0682328304" lon="-4.0419526656"><ele>464</ele><time>2013-08-08T12:53:55Z</time></trkpt>
<trkpt lat="53.0683761676" lon="-4.0419428349"><ele>463</ele><time>2013-08-08T12:54:11Z</time></trkpt>
<trkpt lat="53.0684971650" lon="-4.0418213328"><ele>460</ele><time>2013-08-08T12:54:29Z</time></trkpt>
<trkpt lat="53.0686295033" lon="-4.0418788314"><ele>459</ele><time>2013-08-08T12:54:45Z</time></trkpt>
<trkpt lat="53.0687589963" lon="-4.0419668317"><ele>456</ele><time>2013-08-08T12:55:09Z</time></trkpt>
<trkpt lat="53.0688928366" lon="-4.0420351664"><ele>455</ele><time>2013-08-08T12:55:22Z</time></trkpt>
<trkpt lat="53.0690281630" lon="-4.0420524995"><ele>453</ele><time>2013-08-08T12:55:36Z</time></trkpt>
<trkpt lat="53.0690960010" lon="-4.0418521682"><ele>451</ele><time>2013-08-08T12:55:55Z</time></trkpt>
<trkpt lat="53.0692323367" lon="-4.0417631666"><ele>450</ele><time>2013-08-08T12:56:07Z</time></trkpt>
<trkpt lat="53.0693164984" lon="-4.0415663322"><ele>449</ele><time>2013-08-08T12:56:21Z</time></trkpt>
<trkpt lat="53.0694421689" lon="-4.0414554993"><ele>447</ele><time>2013-08-08T12:56:45Z</time></trkpt>
<trkpt lat="53.0695574999" lon="-4.0413146655"><ele>447</ele><time>2013-08-08T12:56:59Z</time></trkpt>
<trkpt lat="53.0696311633" lon="-4.0411168337"><ele>445</ele><time>2013-08-08T12:57:11Z</time></trkpt>
<trkpt lat="53.0697069963" lon="-4.0409281651"><ele>444</ele><time>2013-08-08T12:57:22Z</time></trkpt>
<trkpt lat="53.0698230028" lon="-4.0408003330"><ele>444</ele><time>2013-08-08T12:57:44Z</time></trkpt>
<trkpt lat="53.0699413300" lon="-4.0406896671"><ele>443</ele><time>2013-08-08T12:57:57Z</time></trkpt>
<trkpt lat="53.0700656652" lon="-4.0405833324"><ele>443</ele><time>2013-08-08T12:58:07Z</time></trkpt>
<trkpt lat="53.0701866706" lon="-4.0404783328"><ele>443</ele><time>2013-08-08T12:58:27Z</time></trkpt>
<trkpt lat="53.0702699979" lon="-4.0402854999"><ele>443</ele><time>2013-08-08T12:58:42Z</time></trkpt>
<trkpt lat="53.0703809977" lon="-4.0401416659"><ele>442</ele><time>2013-08-08T12:58:53Z</time></trkpt>
<trkpt lat="53.0705048323" lon="-4.0400141676"><ele>442</ele><time>2013-08-08T12:59:07Z</time></trkpt>
<trkpt lat="53.0705831687" lon="-4.0398233334"><ele>442</ele><time>2013-08-08T12:59:17Z</time></trkpt>
<trkpt lat="53.0706186692" lon="-4.0395865003"><ele>442</ele><time>2013-08-08T12:59:28Z</time></trkpt>
<trkpt lat="53.0706281662" lon="-4.0393355012"><ele>442</ele><time>2013-08-08T12:59:38Z</time></trkpt>
<trkpt lat="53.0706573327" lon="-4.0391168316"><ele>442</ele><time>2013-08-08T12:59:52Z</time></trkpt>
<trkpt lat="53.0706453323" lon="-4.0388776660"><ele>442</ele><time>2013-08-08T13:00:05Z</time></trkpt>
<trkpt lat="53.0706618309" lon="-4.0386533340"><ele>442</ele><time>2013-08-08T13:00:15Z</time></trkpt>
<trkpt lat="53.0706733306" lon="-4.0384206653"><ele>442</ele><time>2013-08-08T13:00:27Z</time></trkpt>
<trkpt lat="53.0706640005" lon="-4.0381781658"><ele>442</ele><time>2013-08-08T13:00:38Z</time></trkpt>
<trkpt lat="53.0706706683" lon="-4.0379521648"><ele>442</ele><time>2013-08-08T13:00:49Z</time></trkpt>
<trkpt lat="53.0706371705" lon="-4.0377211650"><ele>442</ele><time>2013-08-08T13:01:01Z</time></trkpt>
<trkpt lat="53.0706133366" lon="-4.0374968330"><ele>442</ele><time>2013-08-08T13:01:12Z</time></trkpt>
<trkpt lat="53.0705898364" lon="-4.0372626662"><ele>442</ele><time>2013-08-08T13:01:23Z</time></trkpt>
<trkpt lat="53.0705636660" lon="-4.0370206674"><ele>442</ele><time>2013-08-08T13:01:34Z</time></trkpt>
<trkpt lat="53.0705416679" lon="-4.0367955009"><ele>442</ele><time>2013-08-08T13:01:45Z</time></trkpt>
<trkpt lat="53.0705255032" lon="-4.0365568320"><ele>441</ele><time>2013-08-08T13:01:58Z</time></trkpt>
<trkpt lat="53.0705235004" lon="-4.0363330007"><ele>440</ele><time>2013-08-08T13:02:08Z</time></trkpt>
<trkpt lat="53.0705496629" lon="-4.0361105005"><ele>439</ele><time>2013-08-08T13:02:18Z</time></trkpt>
<trkpt lat="53.0705869993" lon="-4.0358791669"><ele>438</ele><time>2013-08-08T13:02:29Z</time></trkpt>
<trkpt lat="53.0706431627" lon="-4.0356660008"><ele>438</ele><time>2013-08-08T13:02:40Z</time></trkpt>
<trkpt lat="53.0707191706" lon="-4.0354578336"><ele>437</ele><time>2013-08-08T13:02:50Z</time></trkpt>
<trkpt lat="53.0708381653" lon="-4.0353325009"><ele>437</ele><time>2013-08-08T13:03:02Z</time></trkpt>
<trkpt lat="53.0709465027" lon="-4.0351698319"><ele>436</ele><time>2013-08-08T13:03:14Z</time></trkpt>
<trkpt lat="53.0710331678" lon="-4.0349741658"><ele>435</ele><time>2013-08-08T13:03:24Z</time></trkpt>
<trkpt lat="53.0711054961" lon="-4.0347509980"><ele>435</ele><time>2013-08-08T13:03:34Z</time></trkpt>
<trkpt lat="53.0711983363" lon="-4.0345860004"><ele>434</ele><time>2013-08-08T13:03:44Z</time></trkpt>
<trkpt lat="53.0713411649" lon="-4.0345434984"><ele>434</ele><time>2013-08-08T13:03:55Z</time></trkpt>
<trkpt lat="53.0714799960" lon="-4.0345939994"><ele>433</ele><time>2013-08-08T13:04:08Z</time></trkpt>
<trkpt lat="53.0716140032" lon="-4.0346291661"><ele>433</ele><time>2013-08-08T13:04:19Z</time></trkpt>
<trkpt lat="53.0717605035" lon="-4.0346355001"><ele>433</ele><time>2013-08-08T13:04:29Z</time></trkpt>
<trkpt lat="53.0718933344" lon="-4.0345266660"><ele>433</ele><time>2013-08-08T13:04:43Z</time></trkpt>
<trkpt lat="53.0720073303" lon="-4.0344025016"><ele>432</ele><time>2013-08-08T13:04:53Z</time></trkpt>
<trkpt lat="53.0721021652" lon="-4.0342171669"><ele>432</ele><time>2013-08-08T13:05:03Z</time></trkpt>
<trkpt lat="53.0721408367" lon="-4.0340021650"><ele>432</ele><time>2013-08-08T13:05:14Z</time></trkpt>
<trkpt lat="53.0721713305" lon="-4.0337673346"><ele>431</ele><time>2013-08-08T13:05:24Z</time></trkpt>
<trkpt lat="53.0722236633" lon="-4.0335450013"><ele>431</ele><time>2013-08-08T13:05:35Z</time></trkpt>
<trkpt lat="53.0722975016" lon="-4.0333348314"><ele>430</ele><time>2013-08-08T13:05:46Z</time></trkpt>
<trkpt lat="53.0723670006" lon="-4.0331424991"><ele>430</ele><time>2013-08-08T13:05:56Z</time></trkpt>
<trkpt lat="53.0724381685" lon="-4.0329264998"><ele>429</ele><time>2013-08-08T13:06:07Z</time></trkpt>
<trkpt lat="53.0725090027" lon="-4.0327258329"><ele>428</ele><time>2013-08-08T13:06:19Z</time></trkpt>
<trkpt lat="53.0725960016" lon="-4.0325243334"><ele>428</ele><time>2013-08-08T13:06:34Z</time></trkpt>
<trkpt lat="53.0726588329" lon="-4.0323144992"><ele>427</ele><time>2013-08-08T13:06:45Z</time></trkpt>
<trkpt lat="53.0727278312" lon="-4.0321113328"><ele>427</ele><time>2013-08-08T13:06:56Z</time></trkpt>
<trkpt lat="53.0727878332" lon="-4.0318998337"><ele>427</ele><time>2013-08-08T13:07:07Z</time></trkpt>
<trkpt lat="53.0728710016" lon="-4.0316983342"><ele>427</ele><time>2013-08-08T13:07:18Z</time></trkpt>
<trkpt lat="53.0729683320" lon="-4.0315364997"><ele>426</ele><time>2013-08-08T13:07:29Z</time></trkpt>
<trkpt lat="53.0730506659" lon="-4.0313440005"><ele>426</ele><time>2013-08-08T13:07:42Z</time></trkpt>
<trkpt lat="53.0731364965" lon="-4.0311071674"><time>2013-08-08T13:07:56Z</time></trkpt>
<trkpt lat="53.0732314984" lon="-4.0308228334"><time>2013-08-08T13:08:10Z</time></trkpt>
<trkpt lat="53.0735926628" lon="-4.0294941664"><time>2013-08-08T13:09:21Z</time></trkpt>
<trkpt lat="53.0737524986" lon="-4.0290308336"><time>2013-08-08T13:09:43Z</time></trkpt>
<trkpt lat="53.0737378359" lon="-4.0288010001"><ele>426</ele><time>2013-08-08T13:09:54Z</time></trkpt>
<trkpt lat="53.0736804962" lon="-4.0285950005"><ele>426</ele><time>2013-08-08T13:10:05Z</time></trkpt>
<trkpt lat="53.0736356656" lon="-4.0283626676"><ele>426</ele><time>2013-08-08T13:10:23Z</time></trkpt>
<trkpt lat="53.0735534986" lon="-4.0281699995"><ele>426</ele><time>2013-08-08T13:10:34Z</time></trkpt>
<trkpt lat="53.0734586636" lon="-4.0280065000"><ele>426</ele><time>2013-08-08T13:10:44Z</time></trkpt>
<trkpt lat="53.0733511686" lon="-4.0278665006"><ele>426</ele><time>2013-08-08T13:10:54Z</time></trkpt>
<trkpt lat="53.0732523362" lon="-4.0277089993"><ele>426</ele><time>2013-08-08T13:11:06Z</time></trkpt>
<trkpt lat="53.0731800000" lon="-4.0275171657"><ele>426</ele><time>2013-08-08T13:11:17Z</time></trkpt>
<trkpt lat="53.0731115023" lon="-4.0273076673"><ele>426</ele><time>2013-08-08T13:11:28Z</time></trkpt>
<trkpt lat="53.0730478366" lon="-4.0270968338"><ele>425</ele><time>2013-08-08T13:11:46Z</time></trkpt>
<trkpt lat="53.0730056683" lon="-4.0268838326"><ele>425</ele><time>2013-08-08T13:11:57Z</time></trkpt>
<trkpt lat="53.0729683320" lon="-4.0266559998"><ele>424</ele><time>2013-08-08T13:12:09Z</time></trkpt>
<trkpt lat="53.0729346673" lon="-4.0264171660"><ele>424</ele><time>2013-08-08T13:12:21Z</time></trkpt>
<trkpt lat="53.0729211648" lon="-4.0261838337"><ele>423</ele><time>2013-08-08T13:12:33Z</time></trkpt>
<trkpt lat="53.0729739984" lon="-4.0259458343"><ele>421</ele><time>2013-08-08T13:12:43Z</time></trkpt>
<trkpt lat="53.0730056683" lon="-4.0257103324"><ele>420</ele><time>2013-08-08T13:12:54Z</time></trkpt>
<trkpt lat="53.0730619987" lon="-4.0254884998"><ele>419</ele><time>2013-08-08T13:13:06Z</time></trkpt>
<trkpt lat="53.0731300036" lon="-4.0252848327"><ele>418</ele><time>2013-08-08T13:13:17Z</time></trkpt>
<trkpt lat="53.0732345025" lon="-4.0251335005"><ele>417</ele><time>2013-08-08T13:13:27Z</time></trkpt>
<trkpt lat="53.0732878367" lon="-4.0249255002"><ele>417</ele><time>2013-08-08T13:13:37Z</time></trkpt>
<trkpt lat="53.0733436664" lon="-4.0247150004"><ele>416</ele><time>2013-08-08T13:13:48Z</time></trkpt>
<trkpt lat="53.0734051704" lon="-4.0245013336"><ele>416</ele><time>2013-08-08T13:13:59Z</time></trkpt>
<trkpt lat="53.0734515031" lon="-4.0242739995"><ele>415</ele><time>2013-08-08T13:14:09Z</time></trkpt>
<trkpt lat="53.0734608332" lon="-4.0240471661"><ele>415</ele><time>2013-08-08T13:14:19Z</time></trkpt>
<trkpt lat="53.0734416644" lon="-4.0238125006"><ele>414</ele><time>2013-08-08T13:14:29Z</time></trkpt>
<trkpt lat="53.0734103362" lon="-4.0235943337"><ele>413</ele><time>2013-08-08T13:14:40Z</time></trkpt>
<trkpt lat="53.0733935038" lon="-4.0233658334"><ele>413</ele><time>2013-08-08T13:14:51Z</time></trkpt>
<trkpt lat="53.0734033346" lon="-4.0231253326"><ele>413</ele><time>2013-08-08T13:15:02Z</time></trkpt>
<trkpt lat="53.0734270016" lon="-4.0228935003"><ele>413</ele><time>2013-08-08T13:15:13Z</time></trkpt>
<trkpt lat="53.0734583298" lon="-4.0226610005"><ele>413</ele><time>2013-08-08T13:15:24Z</time></trkpt>
<trkpt lat="53.0734884977" lon="-4.0224423329"><ele>413</ele><time>2013-08-08T13:15:35Z</time></trkpt>
<trkpt lat="53.0735526641" lon="-4.0222323338"><ele>413</ele><time>2013-08-08T13:15:46Z</time></trkpt>
<trkpt lat="53.0736169974" lon="-4.0220350007"><ele>413</ele><time>2013-08-08T13:15:56Z</time></trkpt>
<trkpt lat="53.0737080018" lon="-4.0218539993"><ele>413</ele><time>2013-08-08T13:16:07Z</time></trkpt>
<trkpt lat="53.0738104979" lon="-4.0216934999"><ele>413</ele><time>2013-08-08T13:16:19Z</time></trkpt>
<trkpt lat="53.0739350001" lon="-4.0215973337"><ele>413</ele><time>2013-08-08T13:16:33Z</time></trkpt>
<trkpt lat="53.0740783294" lon="-4.0215486666"><ele>413</ele><time>2013-08-08T13:16:45Z</time></trkpt>
<trkpt lat="53.0742125034" lon="-4.0215051671"><ele>413</ele><time>2013-08-08T13:16:55Z</time></trkpt>
<trkpt lat="53.0743448337" lon="-4.0214589993"><ele>413</ele><time>2013-08-08T13:17:05Z</time></trkpt>
<trkpt lat="53.0744850000" lon="-4.0214010000"><ele>412</ele><time>2013-08-08T13:17:16Z</time></trkpt>
<trkpt lat="53.0746273359" lon="-4.0213428338"><ele>412</ele><time>2013-08-08T13:17:27Z</time></trkpt>
<trkpt lat="53.0747621695" lon="-4.0212789992"><ele>411</ele><time>2013-08-08T13:17:38Z</time></trkpt>
<trkpt lat="53.0749041637" lon="-4.0212240001"><ele>410</ele><time>2013-08-08T13:17:50Z</time></trkpt>
<trkpt lat="53.0750301679" lon="-4.0211431662"><ele>409</ele><time>2013-08-08T13:18:01Z</time></trkpt>
<trkpt lat="53.0751678308" lon="-4.0210288326"><ele>408</ele><time>2013-08-08T13:18:11Z</time></trkpt>
<trkpt lat="53.0752668301" lon="-4.0208455006"><ele>407</ele><time>2013-08-08T13:18:22Z</time></trkpt>
<trkpt lat="53.0754128297" lon="-4.0207970003"><ele>406</ele><time>2013-08-08T13:18:36Z</time></trkpt>
<trkpt lat="53.0755544980" lon="-4.0208036661"><ele>406</ele><time>2013-08-08T13:18:47Z</time></trkpt>
<trkpt lat="53.0756748358" lon="-4.0209101657"><ele>406</ele><time>2013-08-08T13:18:59Z</time></trkpt>
<trkpt lat="53.0758071661" lon="-4.0210001667"><ele>406</ele><time>2013-08-08T13:19:10Z</time></trkpt>
<trkpt lat="53.0759441694" lon="-4.0209738334"><ele>406</ele><time>2013-08-08T13:19:21Z</time></trkpt>
<trkpt lat="53.0760878325" lon="-4.0209991674"><ele>406</ele><time>2013-08-08T13:19:33Z</time></trkpt>
<trkpt lat="53.0762306690" lon="-4.0210706671"><ele>406</ele><time>2013-08-08T13:19:45Z</time></trkpt>
<trkpt lat="53.0763405005" lon="-4.0212044994"><ele>405</ele><time>2013-08-08T13:19:58Z</time></trkpt>
<trkpt lat="53.0764455001" lon="-4.0213601669"><ele>405</ele><time>2013-08-08T13:20:10Z</time></trkpt>
<trkpt lat="53.0765453339" lon="-4.0215173324"><ele>405</ele><time>2013-08-08T13:20:21Z</time></trkpt>
<trkpt lat="53.0766719977" lon="-4.0216191669"><ele>405</ele><time>2013-08-08T13:20:33Z</time></trkpt>
<trkpt lat="53.0768074989" lon="-4.0216831664"><ele>403</ele><time>2013-08-08T13:20:59Z</time></trkpt>
<trkpt lat="53.0769343297" lon="-4.0217679997"><ele>403</ele><time>2013-08-08T13:21:09Z</time></trkpt>
<trkpt lat="53.0770711660" lon="-4.0218148331"><ele>402</ele><time>2013-08-08T13:21:20Z</time></trkpt>
<trkpt lat="53.0772071679" lon="-4.0217338324"><ele>401</ele><time>2013-08-08T13:21:30Z</time></trkpt>
<trkpt lat="53.0773305019" lon="-4.0216243327"><ele>399</ele><time>2013-08-08T13:21:41Z</time></trkpt>
<trkpt lat="53.0774490039" lon="-4.0215036670"><ele>397</ele><time>2013-08-08T13:21:51Z</time></trkpt>
<trkpt lat="53.0775366704" lon="-4.0213303328"><ele>396</ele><time>2013-08-08T13:22:02Z</time></trkpt>
<trkpt lat="53.0776259979" lon="-4.0211534997"><ele>394</ele><time>2013-08-08T13:22:13Z</time></trkpt>
<trkpt lat="53.0777373314" lon="-4.0210158328"><ele>393</ele><time>2013-08-08T13:22:23Z</time></trkpt>
<trkpt lat="53.0778695027" lon="-4.0209559997"><ele>392</ele><time>2013-08-08T13:22:33Z</time></trkpt>
<trkpt lat="53.0780043364" lon="-4.0208886663"><ele>391</ele><time>2013-08-08T13:22:46Z</time></trkpt>
<trkpt lat="53.0781431675" lon="-4.0208545009"><ele>390</ele><time>2013-08-08T13:22:59Z</time></trkpt>
<trkpt lat="53.0782795032" lon="-4.0208558341"><ele>390</ele><time>2013-08-08T13:23:10Z</time></trkpt>
<trkpt lat="53.0784251690" lon="-4.0208643337"><ele>389</ele><time>2013-08-08T13:23:23Z</time></trkpt>
<trkpt lat="53.0785600026" lon="-4.0208705008"><ele>388</ele><time>2013-08-08T13:23:33Z</time></trkpt>
<trkpt lat="53.0786964973" lon="-4.0208881676"><ele>388</ele><time>2013-08-08T13:23:44Z</time></trkpt>
<trkpt lat="53.0788311640" lon="-4.0209141672"><ele>387</ele><time>2013-08-08T13:23:56Z</time></trkpt>
<trkpt lat="53.0789741675" lon="-4.0209383329"><ele>387</ele><time>2013-08-08T13:24:07Z</time></trkpt>
<trkpt lat="53.0791111628" lon="-4.0209930003"><ele>387</ele><time>2013-08-08T13:24:20Z</time></trkpt>
<trkpt lat="53.0792534987" lon="-4.0210423330"><ele>386</ele><time>2013-08-08T13:24:31Z</time></trkpt>
<trkpt lat="53.0793926636" lon="-4.0210681657"><ele>386</ele><time>2013-08-08T13:24:41Z</time></trkpt>
<trkpt lat="53.0795378367" lon="-4.0210703333"><ele>385</ele><time>2013-08-08T13:24:52Z</time></trkpt>
<trkpt lat="53.0796826681" lon="-4.0210508327"><ele>384</ele><time>2013-08-08T13:25:03Z</time></trkpt>
<trkpt lat="53.0798254967" lon="-4.0210219999"><ele>383</ele><time>2013-08-08T13:25:14Z</time></trkpt>
<trkpt lat="53.0799661636" lon="-4.0209789991"><ele>382</ele><time>2013-08-08T13:25:28Z</time></trkpt>
<trkpt lat="53.0801028331" lon="-4.0209641675"><ele>381</ele><time>2013-08-08T13:25:43Z</time></trkpt>
<trkpt lat="53.0802270015" lon="-4.0208634992"><ele>379</ele><time>2013-08-08T13:25:55Z</time></trkpt>
<trkpt lat="53.0803630034" lon="-4.0208763341"><ele>379</ele><time>2013-08-08T13:26:08Z</time></trkpt>
<trkpt lat="53.0804286639" lon="-4.0210840007"><ele>376</ele><time>2013-08-08T13:26:34Z</time></trkpt>
<trkpt lat="53.0804151694" lon="-4.0213078340"><ele>374</ele><time>2013-08-08T13:27:06Z</time></trkpt>
</trkseg>
</trk>
</gpx>